PWSweather.com
Personal Weather Stations
Station Observations
KOHREFORM1
Reform, Ohio, Newark, OH 43055

Reform, OhioNewark, OH 43055

Lat: 40.1502, Lon: -82.2417

Elevation: 1043

Station Type: Davis Vantage Pro 2 Plus

Latest ConditionsUpdated 11:27:28 PM EDT Tuesday, Mar 26, 2019
Currently Today's Max Today's Min Today's Average
Temperature 34.0°F1.1°C 48.5°F9.2°C 26.5°F-3.1°C 36.2°F2.3°C
Dew Point 21.2°F-6.0°C 25.7°F-3.5°C 11.0°F-11.7°C 19.1°F-7.2°C
Winds Calm Calm 13.0 mph -20.9 kmh - - 0.1 mph 0.2 kmh
Wind Gusts -- 17.1 mph27.5 kmh - -
Humidity 54% 60% 28% 46%
Pressure 30.46 in1031.5 mb 30.47 in1031.8 mb 30.29 in1025.7 mb -
Hour Temp Dew Point Humidity Winds Wind Gusts Pressure Precip Precip Rate Daily Precip Total
11:27 PM 34.0°F1.1°C 21.2°F-6.0°C 54% Calm Calm -- 30.46 in1031.5 mb 0.00 in0.0 mm 0.00 in0.0 mm 0.00 in0.0 mm
11:25 PM 34.1°F1.2°C 21.3°F-5.9°C 54% Calm Calm -- 30.46 in1031.5 mb 0.00 in0.0 mm 0.00 in0.0 mm 0.00 in0.0 mm
11:23 PM 34.2°F1.2°C 21.4°F-5.9°C 54% Calm Calm -- 30.46 in1031.5 mb 0.00 in0.0 mm 0.00 in0.0 mm 0.00 in0.0 mm
11:21 PM 34.3°F1.3°C 21.9°F-5.6°C 55% Calm Calm -- 30.46 in1031.5 mb 0.00 in0.0 mm 0.00 in0.0 mm 0.00 in0.0 mm
11:19 PM 34.4°F1.3°C 21.6°F-5.8°C 54% Calm Calm -- 30.46 in1031.5 mb 0.00 in0.0 mm 0.00 in0.0 mm 0.00 in0.0 mm
11:17 PM 34.6°F1.4°C 22.2°F-5.4°C 55% Calm Calm -- 30.46 in1031.5 mb 0.00 in0.0 mm 0.00 in0.0 mm 0.00 in0.0 mm
11:15 PM 34.7°F1.5°C 21.9°F-5.6°C 54% Calm Calm -- 30.46 in1031.5 mb 0.00 in0.0 mm 0.00 in0.0 mm 0.00 in0.0 mm
11:13 PM 34.8°F1.6°C 22.0°F-5.6°C 54% Calm Calm -- 30.46 in1031.5 mb 0.00 in0.0 mm 0.00 in0.0 mm 0.00 in0.0 mm
11:11 PM 34.9°F1.6°C 21.6°F-5.8°C 53% Calm Calm -- 30.46 in1031.5 mb 0.00 in0.0 mm 0.00 in0.0 mm 0.00 in0.0 mm
11:09 PM 35.0°F1.7°C 21.7°F-5.7°C 53% Calm Calm -- 30.46 in1031.5 mb 0.00 in0.0 mm 0.00 in0.0 mm 0.00 in0.0 mm
11:07 PM 35.1°F1.7°C 22.2°F-5.4°C 54% Calm Calm -- 30.46 in1031.5 mb 0.00 in0.0 mm 0.00 in0.0 mm 0.00 in0.0 mm
11:05 PM 35.2°F1.8°C 21.9°F-5.6°C 53% Calm Calm -- 30.46 in1031.5 mb 0.00 in0.0 mm 0.00 in0.0 mm 0.00 in0.0 mm
11:03 PM 35.3°F1.8°C 22.0°F-5.6°C 53% Calm Calm -- 30.46 in1031.5 mb 0.00 in0.0 mm 0.00 in0.0 mm 0.00 in0.0 mm
11:01 PM 35.3°F1.8°C 22.0°F-5.6°C 53% Calm Calm -- 30.46 in1031.5 mb 0.00 in0.0 mm 0.00 in0.0 mm 0.00 in0.0 mm
10:59 PM 35.4°F1.9°C 22.1°F-5.5°C 53% Calm Calm -- 30.46 in1031.5 mb 0.00 in0.0 mm 0.00 in0.0 mm 0.00 in0.0 mm
10:57 PM 35.4°F1.9°C 22.1°F-5.5°C 53% Calm Calm -- 30.46 in1031.5 mb 0.00 in0.0 mm 0.00 in0.0 mm 0.00 in0.0 mm
10:55 PM 35.5°F1.9°C 22.2°F-5.4°C 53% Calm Calm -- 30.46 in1031.5 mb 0.00 in0.0 mm 0.00 in0.0 mm 0.00 in0.0 mm
10:53 PM 35.6°F2.0°C 22.7°F-5.2°C 54% Calm Calm -- 30.46 in1031.5 mb 0.00 in0.0 mm 0.00 in0.0 mm 0.00 in0.0 mm
10:51 PM 35.6°F2.0°C 22.7°F-5.2°C 54% Calm Calm -- 30.46 in1031.5 mb 0.00 in0.0 mm 0.00 in0.0 mm 0.00 in0.0 mm
10:49 PM 35.7°F2.1°C 22.8°F-5.1°C 54% Calm Calm 9.1 mph14.6 kmh 30.46 in1031.5 mb 0.00 in0.0 mm 0.00 in0.0 mm 0.00 in0.0 mm
10:47 PM 35.9°F2.2°C 23.0°F-5.0°C 54% Calm Calm -- 30.46 in1031.5 mb 0.00 in0.0 mm 0.00 in0.0 mm 0.00 in0.0 mm
10:45 PM 35.9°F2.2°C 23.0°F-5.0°C 54% Calm Calm -- 30.46 in1031.5 mb 0.00 in0.0 mm 0.00 in0.0 mm 0.00 in0.0 mm
10:43 PM 36.0°F2.2°C 22.7°F-5.2°C 53% Calm Calm -- 30.46 in1031.5 mb 0.00 in0.0 mm 0.00 in0.0 mm 0.00 in0.0 mm
10:41 PM 36.1°F2.3°C 22.8°F-5.1°C 53% Calm Calm -- 30.46 in1031.5 mb 0.00 in0.0 mm 0.00 in0.0 mm 0.00 in0.0 mm
10:39 PM 36.1°F2.3°C 22.8°F-5.1°C 53% Calm Calm -- 30.45 in1031.2 mb 0.00 in0.0 mm 0.00 in0.0 mm 0.00 in0.0 mm
10:37 PM 36.2°F2.3°C 22.9°F-5.1°C 53% Calm Calm -- 30.45 in1031.2 mb 0.00 in0.0 mm 0.00 in0.0 mm 0.00 in0.0 mm
10:35 PM 36.3°F2.4°C 23.0°F-5.0°C 53% Calm Calm -- 30.45 in1031.2 mb 0.00 in0.0 mm 0.00 in0.0 mm 0.00 in0.0 mm
10:33 PM 36.3°F2.4°C 23.0°F-5.0°C 53% Calm Calm -- 30.45 in1031.2 mb 0.00 in0.0 mm 0.00 in0.0 mm 0.00 in0.0 mm
10:31 PM 36.4°F2.4°C 23.1°F-4.9°C 53% Calm Calm -- 30.45 in1031.2 mb 0.00 in0.0 mm 0.00 in0.0 mm 0.00 in0.0 mm
10:29 PM 36.4°F2.4°C 22.6°F-5.2°C 52% Calm Calm -- 30.45 in1031.2 mb 0.00 in0.0 mm 0.00 in0.0 mm 0.00 in0.0 mm
10:27 PM 36.6°F2.6°C 23.2°F-4.9°C 53% Calm Calm -- 30.45 in1031.2 mb 0.00 in0.0 mm 0.00 in0.0 mm 0.00 in0.0 mm
10:25 PM 36.6°F2.6°C 22.8°F-5.1°C 52% Calm Calm -- 30.45 in1031.2 mb 0.00 in0.0 mm 0.00 in0.0 mm 0.00 in0.0 mm
10:23 PM 36.7°F2.6°C 22.9°F-5.1°C 52% Calm Calm -- 30.45 in1031.2 mb 0.00 in0.0 mm 0.00 in0.0 mm 0.00 in0.0 mm
10:21 PM 36.8°F2.7°C 23.0°F-5.0°C 52% Calm Calm -- 30.45 in1031.2 mb 0.00 in0.0 mm 0.00 in0.0 mm 0.00 in0.0 mm
10:19 PM 36.9°F2.7°C 22.7°F-5.2°C 51% Calm Calm -- 30.45 in1031.2 mb 0.00 in0.0 mm 0.00 in0.0 mm 0.00 in0.0 mm
10:17 PM 37.0°F2.8°C 22.8°F-5.1°C 51% Calm Calm -- 30.45 in1031.2 mb 0.00 in0.0 mm 0.00 in0.0 mm 0.00 in0.0 mm
10:15 PM 37.0°F2.8°C 22.8°F-5.1°C 51% 4.0 mph NNE6.4 kmh NNE 6.8 mph10.9 kmh 30.45 in1031.2 mb 0.00 in0.0 mm 0.00 in0.0 mm 0.00 in0.0 mm
10:13 PM 37.1°F2.8°C 22.9°F-5.1°C 51% Calm Calm 1.1 mph1.8 kmh 30.45 in1031.2 mb 0.00 in0.0 mm 0.00 in0.0 mm 0.00 in0.0 mm
10:11 PM 37.2°F2.9°C 23.0°F-5.0°C 51% Calm Calm -- 30.45 in1031.2 mb 0.00 in0.0 mm 0.00 in0.0 mm 0.00 in0.0 mm
10:09 PM 37.3°F2.9°C 23.1°F-4.9°C 51% Calm Calm -- 30.45 in1031.2 mb 0.00 in0.0 mm 0.00 in0.0 mm 0.00 in0.0 mm
10:07 PM 37.4°F3.0°C 22.7°F-5.2°C 50% Calm Calm -- 30.45 in1031.2 mb 0.00 in0.0 mm 0.00 in0.0 mm 0.00 in0.0 mm
10:05 PM 37.5°F3.1°C 22.8°F-5.1°C 50% Calm Calm 6.8 mph10.9 kmh 30.45 in1031.2 mb 0.00 in0.0 mm 0.00 in0.0 mm 0.00 in0.0 mm
10:03 PM 37.6°F3.1°C 22.9°F-5.1°C 50% 6.0 mph NE9.7 kmh NE 6.8 mph10.9 kmh 30.45 in1031.2 mb 0.00 in0.0 mm 0.00 in0.0 mm 0.00 in0.0 mm
10:01 PM 37.7°F3.2°C 23.0°F-5.0°C 50% Calm Calm -- 30.45 in1031.2 mb 0.00 in0.0 mm 0.00 in0.0 mm 0.00 in0.0 mm
09:59 PM 37.8°F3.2°C 23.1°F-4.9°C 50% Calm Calm 5.7 mph9.2 kmh 30.45 in1031.2 mb 0.00 in0.0 mm 0.00 in0.0 mm 0.00 in0.0 mm
09:57 PM 37.9°F3.3°C 22.8°F-5.1°C 49% Calm Calm -- 30.45 in1031.2 mb 0.00 in0.0 mm 0.00 in0.0 mm 0.00 in0.0 mm
09:55 PM 38.0°F3.3°C 22.9°F-5.1°C 49% Calm Calm -- 30.45 in1031.2 mb 0.00 in0.0 mm 0.00 in0.0 mm 0.00 in0.0 mm
09:53 PM 38.1°F3.4°C 22.9°F-5.1°C 49% Calm Calm -- 30.45 in1031.2 mb 0.00 in0.0 mm 0.00 in0.0 mm 0.00 in0.0 mm
09:51 PM 38.2°F3.4°C 23.0°F-5.0°C 49% Calm Calm -- 30.45 in1031.2 mb 0.00 in0.0 mm 0.00 in0.0 mm 0.00 in0.0 mm
09:49 PM 38.3°F3.5°C 22.7°F-5.2°C 48% Calm Calm -- 30.45 in1031.2 mb 0.00 in0.0 mm 0.00 in0.0 mm 0.00 in0.0 mm
09:47 PM 38.3°F3.5°C 22.7°F-5.2°C 48% Calm Calm -- 30.45 in1031.2 mb 0.00 in0.0 mm 0.00 in0.0 mm 0.00 in0.0 mm
09:45 PM 38.4°F3.6°C 22.3°F-5.4°C 47% Calm Calm 1.1 mph1.8 kmh 30.45 in1031.2 mb 0.00 in0.0 mm 0.00 in0.0 mm 0.00 in0.0 mm
09:43 PM 38.5°F3.6°C 22.9°F-5.1°C 48% Calm Calm 1.1 mph1.8 kmh 30.45 in1031.2 mb 0.00 in0.0 mm 0.00 in0.0 mm 0.00 in0.0 mm
09:41 PM 38.6°F3.7°C 22.1°F-5.5°C 46% Calm Calm -- 30.45 in1031.2 mb 0.00 in0.0 mm 0.00 in0.0 mm 0.00 in0.0 mm
09:39 PM 38.7°F3.7°C 22.1°F-5.5°C 46% Calm Calm 1.1 mph1.8 kmh 30.44 in1030.8 mb 0.00 in0.0 mm 0.00 in0.0 mm 0.00 in0.0 mm
09:37 PM 38.8°F3.8°C 22.2°F-5.4°C 46% Calm Calm 2.3 mph3.7 kmh 30.44 in1030.8 mb 0.00 in0.0 mm 0.00 in0.0 mm 0.00 in0.0 mm
09:35 PM 38.9°F3.8°C 21.9°F-5.6°C 45% Calm Calm -- 30.44 in1030.8 mb 0.00 in0.0 mm 0.00 in0.0 mm 0.00 in0.0 mm
09:33 PM 39.0°F3.9°C 21.5°F-5.8°C 44% Calm Calm -- 30.44 in1030.8 mb 0.00 in0.0 mm 0.00 in0.0 mm 0.00 in0.0 mm
09:31 PM 39.2°F4.0°C 21.7°F-5.7°C 44% Calm Calm -- 30.44 in1030.8 mb 0.00 in0.0 mm 0.00 in0.0 mm 0.00 in0.0 mm
09:29 PM 39.3°F4.1°C 21.3°F-5.9°C 43% Calm Calm -- 30.44 in1030.8 mb 0.00 in0.0 mm 0.00 in0.0 mm 0.00 in0.0 mm
09:27 PM 39.4°F4.1°C 21.4°F-5.9°C 43% Calm Calm 1.1 mph1.8 kmh 30.44 in1030.8 mb 0.00 in0.0 mm 0.00 in0.0 mm 0.00 in0.0 mm
09:25 PM 39.5°F4.2°C 21.5°F-5.8°C 43% Calm Calm -- 30.44 in1030.8 mb 0.00 in0.0 mm 0.00 in0.0 mm 0.00 in0.0 mm
09:23 PM 39.7°F4.3°C 21.1°F-6.1°C 42% Calm Calm -- 30.44 in1030.8 mb 0.00 in0.0 mm 0.00 in0.0 mm 0.00 in0.0 mm
09:21 PM 39.9°F4.4°C 21.8°F-5.7°C 43% Calm Calm -- 30.44 in1030.8 mb 0.00 in0.0 mm 0.00 in0.0 mm 0.00 in0.0 mm
09:19 PM 40.0°F4.4°C 20.9°F-6.2°C 41% Calm Calm -- 30.44 in1030.8 mb 0.00 in0.0 mm 0.00 in0.0 mm 0.00 in0.0 mm
09:17 PM 40.0°F4.4°C 20.9°F-6.2°C 41% Calm Calm 4.6 mph7.4 kmh 30.43 in1030.5 mb 0.00 in0.0 mm 0.00 in0.0 mm 0.00 in0.0 mm
09:15 PM 40.1°F4.5°C 21.0°F-6.1°C 41% Calm Calm -- 30.43 in1030.5 mb 0.00 in0.0 mm 0.00 in0.0 mm 0.00 in0.0 mm
09:13 PM 40.1°F4.5°C 21.0°F-6.1°C 41% Calm Calm -- 30.43 in1030.5 mb 0.00 in0.0 mm 0.00 in0.0 mm 0.00 in0.0 mm
09:11 PM 40.1°F4.5°C 21.0°F-6.1°C 41% Calm Calm -- 30.43 in1030.5 mb 0.00 in0.0 mm 0.00 in0.0 mm 0.00 in0.0 mm
09:09 PM 40.1°F4.5°C 21.0°F-6.1°C 41% Calm Calm -- 30.43 in1030.5 mb 0.00 in0.0 mm 0.00 in0.0 mm 0.00 in0.0 mm
09:07 PM 40.2°F4.6°C 21.1°F-6.1°C 41% Calm Calm -- 30.43 in1030.5 mb 0.00 in0.0 mm 0.00 in0.0 mm 0.00 in0.0 mm
09:05 PM 40.2°F4.6°C 20.6°F-6.3°C 40% Calm Calm -- 30.43 in1030.5 mb 0.00 in0.0 mm 0.00 in0.0 mm 0.00 in0.0 mm
09:03 PM 40.2°F4.6°C 20.6°F-6.3°C 40% Calm Calm -- 30.43 in1030.5 mb 0.00 in0.0 mm 0.00 in0.0 mm 0.00 in0.0 mm
09:01 PM 40.2°F4.6°C 20.6°F-6.3°C 40% Calm Calm -- 30.43 in1030.5 mb 0.00 in0.0 mm 0.00 in0.0 mm 0.00 in0.0 mm
08:59 PM 40.3°F4.6°C 20.7°F-6.3°C 40% Calm Calm -- 30.43 in1030.5 mb 0.00 in0.0 mm 0.00 in0.0 mm 0.00 in0.0 mm
08:57 PM 40.4°F4.7°C 20.8°F-6.2°C 40% Calm Calm -- 30.43 in1030.5 mb 0.00 in0.0 mm 0.00 in0.0 mm 0.00 in0.0 mm
08:55 PM 40.5°F4.7°C 20.8°F-6.2°C 40% Calm Calm -- 30.43 in1030.5 mb 0.00 in0.0 mm 0.00 in0.0 mm 0.00 in0.0 mm
08:53 PM 40.6°F4.8°C 20.9°F-6.2°C 40% Calm Calm -- 30.43 in1030.5 mb 0.00 in0.0 mm 0.00 in0.0 mm 0.00 in0.0 mm
08:51 PM 40.7°F4.8°C 20.5°F-6.4°C 39% Calm Calm -- 30.42 in1030.1 mb 0.00 in0.0 mm 0.00 in0.0 mm 0.00 in0.0 mm
08:49 PM 40.8°F4.9°C 20.6°F-6.3°C 39% Calm Calm -- 30.42 in1030.1 mb 0.00 in0.0 mm 0.00 in0.0 mm 0.00 in0.0 mm
08:47 PM 40.8°F4.9°C 20.6°F-6.3°C 39% Calm Calm -- 30.42 in1030.1 mb 0.00 in0.0 mm 0.00 in0.0 mm 0.00 in0.0 mm
08:45 PM 40.9°F4.9°C 20.7°F-6.3°C 39% Calm Calm -- 30.42 in1030.1 mb 0.00 in0.0 mm 0.00 in0.0 mm 0.00 in0.0 mm
08:43 PM 40.9°F4.9°C 21.2°F-6.0°C 40% Calm Calm -- 30.42 in1030.1 mb 0.00 in0.0 mm 0.00 in0.0 mm 0.00 in0.0 mm
08:41 PM 40.9°F4.9°C 20.7°F-6.3°C 39% Calm Calm -- 30.42 in1030.1 mb 0.00 in0.0 mm 0.00 in0.0 mm 0.00 in0.0 mm
08:39 PM 40.9°F4.9°C 20.7°F-6.3°C 39% Calm Calm -- 30.42 in1030.1 mb 0.00 in0.0 mm 0.00 in0.0 mm 0.00 in0.0 mm
08:37 PM 40.9°F4.9°C 20.7°F-6.3°C 39% Calm Calm -- 30.42 in1030.1 mb 0.00 in0.0 mm 0.00 in0.0 mm 0.00 in0.0 mm
08:35 PM 41.0°F5.0°C 20.2°F-6.6°C 38% Calm Calm -- 30.42 in1030.1 mb 0.00 in0.0 mm 0.00 in0.0 mm 0.00 in0.0 mm
08:33 PM 41.1°F5.1°C 20.9°F-6.2°C 39% Calm Calm -- 30.42 in1030.1 mb 0.00 in0.0 mm 0.00 in0.0 mm 0.00 in0.0 mm
08:31 PM 41.3°F5.2°C 21.0°F-6.1°C 39% Calm Calm -- 30.42 in1030.1 mb 0.00 in0.0 mm 0.00 in0.0 mm 0.00 in0.0 mm
08:29 PM 41.3°F5.2°C 21.0°F-6.1°C 39% Calm Calm -- 30.42 in1030.1 mb 0.00 in0.0 mm 0.00 in0.0 mm 0.00 in0.0 mm
08:27 PM 41.5°F5.3°C 21.2°F-6.0°C 39% Calm Calm -- 30.42 in1030.1 mb 0.00 in0.0 mm 0.00 in0.0 mm 0.00 in0.0 mm
08:25 PM 41.6°F5.3°C 20.8°F-6.2°C 38% Calm Calm -- 30.42 in1030.1 mb 0.00 in0.0 mm 0.00 in0.0 mm 0.00 in0.0 mm
08:23 PM 41.6°F5.3°C 20.8°F-6.2°C 38% Calm Calm -- 30.42 in1030.1 mb 0.00 in0.0 mm 0.00 in0.0 mm 0.00 in0.0 mm
08:21 PM 41.7°F5.4°C 20.9°F-6.2°C 38% Calm Calm -- 30.42 in1030.1 mb 0.00 in0.0 mm 0.00 in0.0 mm 0.00 in0.0 mm
08:19 PM 41.8°F5.4°C 21.5°F-5.8°C 39% Calm Calm -- 30.42 in1030.1 mb 0.00 in0.0 mm 0.00 in0.0 mm 0.00 in0.0 mm
08:17 PM 41.9°F5.5°C 21.1°F-6.1°C 38% Calm Calm -- 30.42 in1030.1 mb 0.00 in0.0 mm 0.00 in0.0 mm 0.00 in0.0 mm
08:15 PM 42.1°F5.6°C 21.8°F-5.7°C 39% Calm Calm -- 30.42 in1030.1 mb 0.00 in0.0 mm 0.00 in0.0 mm 0.00 in0.0 mm
08:13 PM 42.0°F5.6°C 21.1°F-6.1°C 38% Calm Calm -- 30.42 in1030.1 mb 0.00 in0.0 mm 0.00 in0.0 mm 0.00 in0.0 mm
08:11 PM 42.1°F5.6°C 20.7°F-6.3°C 37% Calm Calm -- 30.42 in1030.1 mb 0.00 in0.0 mm 0.00 in0.0 mm 0.00 in0.0 mm
08:09 PM 42.2°F5.7°C 20.8°F-6.2°C 37% Calm Calm -- 30.42 in1030.1 mb 0.00 in0.0 mm 0.00 in0.0 mm 0.00 in0.0 mm
08:07 PM 42.3°F5.7°C 22.0°F-5.6°C 39% Calm Calm -- 30.42 in1030.1 mb 0.00 in0.0 mm 0.00 in0.0 mm 0.00 in0.0 mm
08:05 PM 42.4°F5.8°C 21.5°F-5.8°C 38% Calm Calm -- 30.41 in1029.8 mb 0.00 in0.0 mm 0.00 in0.0 mm 0.00 in0.0 mm
08:03 PM 42.5°F5.8°C 21.0°F-6.1°C 37% Calm Calm -- 30.42 in1030.1 mb 0.00 in0.0 mm 0.00 in0.0 mm 0.00 in0.0 mm
08:01 PM 42.6°F5.9°C 21.1°F-6.1°C 37% Calm Calm -- 30.42 in1030.1 mb 0.00 in0.0 mm 0.00 in0.0 mm 0.00 in0.0 mm
07:59 PM 42.8°F6.0°C 21.3°F-5.9°C 37% Calm Calm -- 30.42 in1030.1 mb 0.00 in0.0 mm 0.00 in0.0 mm 0.00 in0.0 mm
07:57 PM 42.9°F6.1°C 21.4°F-5.9°C 37% Calm Calm -- 30.41 in1029.8 mb 0.00 in0.0 mm 0.00 in0.0 mm 0.00 in0.0 mm
07:55 PM 43.1°F6.2°C 21.6°F-5.8°C 37% Calm Calm -- 30.42 in1030.1 mb 0.00 in0.0 mm 0.00 in0.0 mm 0.00 in0.0 mm
07:53 PM 43.1°F6.2°C 21.6°F-5.8°C 37% Calm Calm -- 30.42 in1030.1 mb 0.00 in0.0 mm 0.00 in0.0 mm 0.00 in0.0 mm
07:51 PM 43.4°F6.3°C 21.3°F-5.9°C 36% Calm Calm -- 30.41 in1029.8 mb 0.00 in0.0 mm 0.00 in0.0 mm 0.00 in0.0 mm
07:49 PM 43.5°F6.4°C 21.9°F-5.6°C 37% Calm Calm -- 30.41 in1029.8 mb 0.00 in0.0 mm 0.00 in0.0 mm 0.00 in0.0 mm
07:47 PM 43.7°F6.5°C 22.1°F-5.5°C 37% Calm Calm -- 30.41 in1029.8 mb 0.00 in0.0 mm 0.00 in0.0 mm 0.00 in0.0 mm
07:45 PM 43.9°F6.6°C 22.3°F-5.4°C 37% Calm Calm -- 30.41 in1029.8 mb 0.00 in0.0 mm 0.00 in0.0 mm 0.00 in0.0 mm
07:43 PM 44.0°F6.7°C 21.8°F-5.7°C 36% Calm Calm -- 30.41 in1029.8 mb 0.00 in0.0 mm 0.00 in0.0 mm 0.00 in0.0 mm
07:41 PM 44.1°F6.7°C 20.7°F-6.3°C 34% Calm Calm -- 30.41 in1029.8 mb 0.00 in0.0 mm 0.00 in0.0 mm 0.00 in0.0 mm
07:39 PM 44.2°F6.8°C 22.0°F-5.6°C 36% Calm Calm -- 30.41 in1029.8 mb 0.00 in0.0 mm 0.00 in0.0 mm 0.00 in0.0 mm
07:37 PM 44.3°F6.8°C 21.5°F-5.8°C 35% Calm Calm -- 30.41 in1029.8 mb 0.00 in0.0 mm 0.00 in0.0 mm 0.00 in0.0 mm
07:35 PM 44.4°F6.9°C 22.2°F-5.4°C 36% Calm Calm -- 30.41 in1029.8 mb 0.00 in0.0 mm 0.00 in0.0 mm 0.00 in0.0 mm
07:33 PM 44.6°F7.0°C 21.8°F-5.7°C 35% Calm Calm -- 30.41 in1029.8 mb 0.00 in0.0 mm 0.00 in0.0 mm 0.00 in0.0 mm
07:31 PM 44.6°F7.0°C 21.8°F-5.7°C 35% Calm Calm -- 30.41 in1029.8 mb 0.00 in0.0 mm 0.00 in0.0 mm 0.00 in0.0 mm
07:29 PM 44.7°F7.1°C 21.3°F-5.9°C 34% Calm Calm -- 30.41 in1029.8 mb 0.00 in0.0 mm 0.00 in0.0 mm 0.00 in0.0 mm
07:27 PM 44.8°F7.1°C 22.0°F-5.6°C 35% Calm Calm -- 30.41 in1029.8 mb 0.00 in0.0 mm 0.00 in0.0 mm 0.00 in0.0 mm
07:25 PM 44.9°F7.2°C 21.5°F-5.8°C 34% Calm Calm -- 30.41 in1029.8 mb 0.00 in0.0 mm 0.00 in0.0 mm 0.00 in0.0 mm
07:23 PM 45.0°F7.2°C 21.5°F-5.8°C 34% Calm Calm -- 30.41 in1029.8 mb 0.00 in0.0 mm 0.00 in0.0 mm 0.00 in0.0 mm
07:21 PM 45.0°F7.2°C 20.9°F-6.2°C 33% Calm Calm -- 30.41 in1029.8 mb 0.00 in0.0 mm 0.00 in0.0 mm 0.00 in0.0 mm
07:19 PM 45.1°F7.3°C 21.0°F-6.1°C 33% Calm Calm -- 30.41 in1029.8 mb 0.00 in0.0 mm 0.00 in0.0 mm 0.00 in0.0 mm
07:17 PM 45.2°F7.3°C 21.1°F-6.1°C 33% Calm Calm -- 30.41 in1029.8 mb 0.00 in0.0 mm 0.00 in0.0 mm 0.00 in0.0 mm
07:15 PM 45.3°F7.4°C 21.8°F-5.7°C 34% Calm Calm -- 30.41 in1029.8 mb 0.00 in0.0 mm 0.00 in0.0 mm 0.00 in0.0 mm
07:13 PM 45.4°F7.4°C 21.3°F-5.9°C 33% Calm Calm -- 30.41 in1029.8 mb 0.00 in0.0 mm 0.00 in0.0 mm 0.00 in0.0 mm
07:11 PM 45.5°F7.5°C 21.4°F-5.9°C 33% Calm Calm -- 30.41 in1029.8 mb 0.00 in0.0 mm 0.00 in0.0 mm 0.00 in0.0 mm
07:09 PM 45.6°F7.6°C 22.1°F-5.5°C 34% Calm Calm -- 30.41 in1029.8 mb 0.00 in0.0 mm 0.00 in0.0 mm 0.00 in0.0 mm
07:07 PM 45.7°F7.6°C 20.9°F-6.2°C 32% Calm Calm -- 30.41 in1029.8 mb 0.00 in0.0 mm 0.00 in0.0 mm 0.00 in0.0 mm
07:05 PM 45.9°F7.7°C 21.7°F-5.7°C 33% Calm Calm 1.1 mph1.8 kmh 30.41 in1029.8 mb 0.00 in0.0 mm 0.00 in0.0 mm 0.00 in0.0 mm
07:03 PM 46.0°F7.8°C 21.2°F-6.0°C 32% Calm Calm -- 30.41 in1029.8 mb 0.00 in0.0 mm 0.00 in0.0 mm 0.00 in0.0 mm
07:01 PM 46.1°F7.8°C 20.6°F-6.3°C 31% Calm Calm -- 30.41 in1029.8 mb 0.00 in0.0 mm 0.00 in0.0 mm 0.00 in0.0 mm
06:59 PM 46.3°F7.9°C 21.5°F-5.8°C 32% Calm Calm -- 30.41 in1029.8 mb 0.00 in0.0 mm 0.00 in0.0 mm 0.00 in0.0 mm
06:57 PM 46.5°F8.1°C 22.9°F-5.1°C 34% Calm Calm -- 30.41 in1029.8 mb 0.00 in0.0 mm 0.00 in0.0 mm 0.00 in0.0 mm
06:55 PM 46.6°F8.1°C 23.6°F-4.7°C 35% Calm Calm -- 30.41 in1029.8 mb 0.00 in0.0 mm 0.00 in0.0 mm 0.00 in0.0 mm
06:53 PM 46.6°F8.1°C 21.7°F-5.7°C 32% Calm Calm -- 30.41 in1029.8 mb 0.00 in0.0 mm 0.00 in0.0 mm 0.00 in0.0 mm
06:51 PM 46.6°F8.1°C 21.1°F-6.1°C 31% Calm Calm -- 30.41 in1029.8 mb 0.00 in0.0 mm 0.00 in0.0 mm 0.00 in0.0 mm
06:49 PM 46.7°F8.2°C 21.2°F-6.0°C 31% Calm Calm -- 30.41 in1029.8 mb 0.00 in0.0 mm 0.00 in0.0 mm 0.00 in0.0 mm
06:47 PM 46.7°F8.2°C 21.2°F-6.0°C 31% Calm Calm -- 30.41 in1029.8 mb 0.00 in0.0 mm 0.00 in0.0 mm 0.00 in0.0 mm
06:45 PM 46.8°F8.2°C 23.2°F-4.9°C 34% Calm Calm -- 30.41 in1029.8 mb 0.00 in0.0 mm 0.00 in0.0 mm 0.00 in0.0 mm
06:43 PM 46.8°F8.2°C 21.9°F-5.6°C 32% Calm Calm -- 30.41 in1029.8 mb 0.00 in0.0 mm 0.00 in0.0 mm 0.00 in0.0 mm
06:41 PM 46.8°F8.2°C 21.3°F-5.9°C 31% Calm Calm -- 30.41 in1029.8 mb 0.00 in0.0 mm 0.00 in0.0 mm 0.00 in0.0 mm
06:39 PM 46.8°F8.2°C 21.9°F-5.6°C 32% Calm Calm -- 30.41 in1029.8 mb 0.00 in0.0 mm 0.00 in0.0 mm 0.00 in0.0 mm
06:37 PM 46.9°F8.3°C 21.4°F-5.9°C 31% Calm Calm -- 30.41 in1029.8 mb 0.00 in0.0 mm 0.00 in0.0 mm 0.00 in0.0 mm
06:35 PM 46.9°F8.3°C 22.6°F-5.2°C 33% Calm Calm -- 30.41 in1029.8 mb 0.00 in0.0 mm 0.00 in0.0 mm 0.00 in0.0 mm
06:33 PM 46.9°F8.3°C 22.0°F-5.6°C 32% Calm Calm -- 30.41 in1029.8 mb 0.00 in0.0 mm 0.00 in0.0 mm 0.00 in0.0 mm
06:31 PM 46.9°F8.3°C 20.7°F-6.3°C 30% Calm Calm -- 30.41 in1029.8 mb 0.00 in0.0 mm 0.00 in0.0 mm 0.00 in0.0 mm
06:29 PM 47.0°F8.3°C 20.8°F-6.2°C 30% Calm Calm -- 30.41 in1029.8 mb 0.00 in0.0 mm 0.00 in0.0 mm 0.00 in0.0 mm
06:27 PM 46.9°F8.3°C 20.7°F-6.3°C 30% Calm Calm -- 30.41 in1029.8 mb 0.00 in0.0 mm 0.00 in0.0 mm 0.00 in0.0 mm
06:25 PM 47.0°F8.3°C 20.8°F-6.2°C 30% Calm Calm -- 30.41 in1029.8 mb 0.00 in0.0 mm 0.00 in0.0 mm 0.00 in0.0 mm
06:23 PM 47.1°F8.4°C 20.2°F-6.6°C 29% Calm Calm -- 30.41 in1029.8 mb 0.00 in0.0 mm 0.00 in0.0 mm 0.00 in0.0 mm
06:21 PM 47.3°F8.5°C 21.0°F-6.1°C 30% Calm Calm -- 30.41 in1029.8 mb 0.00 in0.0 mm 0.00 in0.0 mm 0.00 in0.0 mm
06:19 PM 47.6°F8.7°C 21.3°F-5.9°C 30% Calm Calm -- 30.41 in1029.8 mb 0.00 in0.0 mm 0.00 in0.0 mm 0.00 in0.0 mm
06:17 PM 47.6°F8.7°C 22.0°F-5.6°C 31% Calm Calm -- 30.41 in1029.8 mb 0.00 in0.0 mm 0.00 in0.0 mm 0.00 in0.0 mm
06:15 PM 47.6°F8.7°C 21.3°F-5.9°C 30% Calm Calm -- 30.41 in1029.8 mb 0.00 in0.0 mm 0.00 in0.0 mm 0.00 in0.0 mm
06:13 PM 47.8°F8.8°C 22.2°F-5.4°C 31% Calm Calm -- 30.41 in1029.8 mb 0.00 in0.0 mm 0.00 in0.0 mm 0.00 in0.0 mm
06:11 PM 47.9°F8.8°C 20.9°F-6.2°C 29% Calm Calm -- 30.41 in1029.8 mb 0.00 in0.0 mm 0.00 in0.0 mm 0.00 in0.0 mm
06:09 PM 47.9°F8.8°C 20.9°F-6.2°C 29% Calm Calm -- 30.41 in1029.8 mb 0.00 in0.0 mm 0.00 in0.0 mm 0.00 in0.0 mm
06:07 PM 47.8°F8.8°C 22.2°F-5.4°C 31% Calm Calm -- 30.41 in1029.8 mb 0.00 in0.0 mm 0.00 in0.0 mm 0.00 in0.0 mm
06:05 PM 47.7°F8.7°C 21.4°F-5.9°C 30% Calm Calm -- 30.41 in1029.8 mb 0.00 in0.0 mm 0.00 in0.0 mm 0.00 in0.0 mm
06:03 PM 47.6°F8.7°C 20.6°F-6.3°C 29% Calm Calm -- 30.41 in1029.8 mb 0.00 in0.0 mm 0.00 in0.0 mm 0.00 in0.0 mm
06:01 PM 47.5°F8.6°C 20.5°F-6.4°C 29% Calm Calm -- 30.41 in1029.8 mb 0.00 in0.0 mm 0.00 in0.0 mm 0.00 in0.0 mm
05:59 PM 47.6°F8.7°C 21.3°F-5.9°C 30% Calm Calm -- 30.41 in1029.8 mb 0.00 in0.0 mm 0.00 in0.0 mm 0.00 in0.0 mm
05:57 PM 47.8°F8.8°C 20.8°F-6.2°C 29% Calm Calm -- 30.41 in1029.8 mb 0.00 in0.0 mm 0.00 in0.0 mm 0.00 in0.0 mm
05:55 PM 48.0°F8.9°C 21.7°F-5.7°C 30% Calm Calm -- 30.41 in1029.8 mb 0.00 in0.0 mm 0.00 in0.0 mm 0.00 in0.0 mm
05:53 PM 48.1°F8.9°C 23.1°F-4.9°C 32% Calm Calm -- 30.41 in1029.8 mb 0.00 in0.0 mm 0.00 in0.0 mm 0.00 in0.0 mm
05:51 PM 48.1°F8.9°C 21.8°F-5.7°C 30% Calm Calm -- 30.41 in1029.8 mb 0.00 in0.0 mm 0.00 in0.0 mm 0.00 in0.0 mm
05:49 PM 48.2°F9.0°C 22.5°F-5.3°C 31% Calm Calm 2.3 mph3.7 kmh 30.41 in1029.8 mb 0.00 in0.0 mm 0.00 in0.0 mm 0.00 in0.0 mm
05:47 PM 48.2°F9.0°C 21.2°F-6.0°C 29% Calm Calm -- 30.41 in1029.8 mb 0.00 in0.0 mm 0.00 in0.0 mm 0.00 in0.0 mm
05:45 PM 48.2°F9.0°C 21.2°F-6.0°C 29% Calm Calm -- 30.41 in1029.8 mb 0.00 in0.0 mm 0.00 in0.0 mm 0.00 in0.0 mm
05:43 PM 48.3°F9.1°C 20.5°F-6.4°C 28% Calm Calm -- 30.41 in1029.8 mb 0.00 in0.0 mm 0.00 in0.0 mm 0.00 in0.0 mm
05:41 PM 48.3°F9.1°C 22.6°F-5.2°C 31% Calm Calm -- 30.41 in1029.8 mb 0.00 in0.0 mm 0.00 in0.0 mm 0.00 in0.0 mm
05:39 PM 48.1°F8.9°C 22.4°F-5.3°C 31% Calm Calm -- 30.41 in1029.8 mb 0.00 in0.0 mm 0.00 in0.0 mm 0.00 in0.0 mm
05:37 PM 48.1°F8.9°C 20.4°F-6.4°C 28% Calm Calm -- 30.41 in1029.8 mb 0.00 in0.0 mm 0.00 in0.0 mm 0.00 in0.0 mm
05:35 PM 48.1°F8.9°C 21.1°F-6.1°C 29% Calm Calm 2.3 mph3.7 kmh 30.41 in1029.8 mb 0.00 in0.0 mm 0.00 in0.0 mm 0.00 in0.0 mm
05:33 PM 48.1°F8.9°C 21.8°F-5.7°C 30% Calm Calm 2.3 mph3.7 kmh 30.41 in1029.8 mb 0.00 in0.0 mm 0.00 in0.0 mm 0.00 in0.0 mm
05:31 PM 48.1°F8.9°C 22.4°F-5.3°C 31% Calm Calm -- 30.41 in1029.8 mb 0.00 in0.0 mm 0.00 in0.0 mm 0.00 in0.0 mm
05:29 PM 48.0°F8.9°C 23.6°F-4.7°C 33% Calm Calm -- 30.41 in1029.8 mb 0.00 in0.0 mm 0.00 in0.0 mm 0.00 in0.0 mm
05:27 PM 48.0°F8.9°C 22.3°F-5.4°C 31% Calm Calm -- 30.41 in1029.8 mb 0.00 in0.0 mm 0.00 in0.0 mm 0.00 in0.0 mm
05:25 PM 47.9°F8.8°C 22.9°F-5.1°C 32% Calm Calm -- 30.41 in1029.8 mb 0.00 in0.0 mm 0.00 in0.0 mm 0.00 in0.0 mm
05:23 PM 47.9°F8.8°C 21.6°F-5.8°C 30% Calm Calm -- 30.41 in1029.8 mb 0.00 in0.0 mm 0.00 in0.0 mm 0.00 in0.0 mm
05:21 PM 48.0°F8.9°C 21.0°F-6.1°C 29% Calm Calm -- 30.41 in1029.8 mb 0.00 in0.0 mm 0.00 in0.0 mm 0.00 in0.0 mm
05:19 PM 48.2°F9.0°C 21.2°F-6.0°C 29% Calm Calm -- 30.41 in1029.8 mb 0.00 in0.0 mm 0.00 in0.0 mm 0.00 in0.0 mm
05:17 PM 48.2°F9.0°C 22.5°F-5.3°C 31% Calm Calm 5.7 mph9.2 kmh 30.41 in1029.8 mb 0.00 in0.0 mm 0.00 in0.0 mm 0.00 in0.0 mm
05:15 PM 48.2°F9.0°C 22.5°F-5.3°C 31% Calm Calm -- 30.41 in1029.8 mb 0.00 in0.0 mm 0.00 in0.0 mm 0.00 in0.0 mm
05:13 PM 48.1°F8.9°C 22.4°F-5.3°C 31% Calm Calm 1.1 mph1.8 kmh 30.41 in1029.8 mb 0.00 in0.0 mm 0.00 in0.0 mm 0.00 in0.0 mm
05:11 PM 48.1°F8.9°C 23.1°F-4.9°C 32% Calm Calm -- 30.41 in1029.8 mb 0.00 in0.0 mm 0.00 in0.0 mm 0.00 in0.0 mm
05:09 PM 48.1°F8.9°C 23.7°F-4.6°C 33% Calm Calm 9.1 mph14.6 kmh 30.41 in1029.8 mb 0.00 in0.0 mm 0.00 in0.0 mm 0.00 in0.0 mm
05:07 PM 48.3°F9.1°C 21.9°F-5.6°C 30% Calm Calm -- 30.41 in1029.8 mb 0.00 in0.0 mm 0.00 in0.0 mm 0.00 in0.0 mm
05:05 PM 48.5°F9.2°C 22.8°F-5.1°C 31% Calm Calm -- 30.41 in1029.8 mb 0.00 in0.0 mm 0.00 in0.0 mm 0.00 in0.0 mm
05:03 PM 48.5°F9.2°C 22.8°F-5.1°C 31% Calm Calm 3.4 mph5.5 kmh 30.41 in1029.8 mb 0.00 in0.0 mm 0.00 in0.0 mm 0.00 in0.0 mm
05:01 PM 48.5°F9.2°C 23.4°F-4.8°C 32% Calm Calm -- 30.41 in1029.8 mb 0.00 in0.0 mm 0.00 in0.0 mm 0.00 in0.0 mm
04:59 PM 48.3°F9.1°C 23.9°F-4.5°C 33% Calm Calm -- 30.41 in1029.8 mb 0.00 in0.0 mm 0.00 in0.0 mm 0.00 in0.0 mm
04:57 PM 48.1°F8.9°C 23.7°F-4.6°C 33% Calm Calm -- 30.41 in1029.8 mb 0.00 in0.0 mm 0.00 in0.0 mm 0.00 in0.0 mm
04:55 PM 47.9°F8.8°C 20.9°F-6.2°C 29% Calm Calm -- 30.41 in1029.8 mb 0.00 in0.0 mm 0.00 in0.0 mm 0.00 in0.0 mm
04:53 PM 47.9°F8.8°C 20.9°F-6.2°C 29% Calm Calm 8.0 mph12.9 kmh 30.41 in1029.8 mb 0.00 in0.0 mm 0.00 in0.0 mm 0.00 in0.0 mm
04:51 PM 47.9°F8.8°C 20.2°F-6.6°C 28% Calm Calm -- 30.41 in1029.8 mb 0.00 in0.0 mm 0.00 in0.0 mm 0.00 in0.0 mm
04:49 PM 47.9°F8.8°C 24.1°F-4.4°C 34% Calm Calm -- 30.41 in1029.8 mb 0.00 in0.0 mm 0.00 in0.0 mm 0.00 in0.0 mm
04:47 PM 47.9°F8.8°C 21.6°F-5.8°C 30% Calm Calm -- 30.41 in1029.8 mb 0.00 in0.0 mm 0.00 in0.0 mm 0.00 in0.0 mm
04:45 PM 48.1°F8.9°C 23.1°F-4.9°C 32% Calm Calm -- 30.41 in1029.8 mb 0.00 in0.0 mm 0.00 in0.0 mm 0.00 in0.0 mm
04:43 PM 48.1°F8.9°C 23.1°F-4.9°C 32% Calm Calm -- 30.41 in1029.8 mb 0.00 in0.0 mm 0.00 in0.0 mm 0.00 in0.0 mm
04:41 PM 48.0°F8.9°C 23.0°F-5.0°C 32% Calm Calm -- 30.41 in1029.8 mb 0.00 in0.0 mm 0.00 in0.0 mm 0.00 in0.0 mm
04:39 PM 47.9°F8.8°C 24.8°F-4.0°C 35% Calm Calm 1.1 mph1.8 kmh 30.41 in1029.8 mb 0.00 in0.0 mm 0.00 in0.0 mm 0.00 in0.0 mm
04:37 PM 47.9°F8.8°C 21.6°F-5.8°C 30% Calm Calm 6.8 mph10.9 kmh 30.41 in1029.8 mb 0.00 in0.0 mm 0.00 in0.0 mm 0.00 in0.0 mm
04:35 PM 48.0°F8.9°C 21.7°F-5.7°C 30% Calm Calm 6.8 mph10.9 kmh 30.41 in1029.8 mb 0.00 in0.0 mm 0.00 in0.0 mm 0.00 in0.0 mm
04:33 PM 47.9°F8.8°C 23.5°F-4.7°C 33% Calm Calm -- 30.41 in1029.8 mb 0.00 in0.0 mm 0.00 in0.0 mm 0.00 in0.0 mm
04:31 PM 47.8°F8.8°C 23.4°F-4.8°C 33% Calm Calm -- 30.41 in1029.8 mb 0.00 in0.0 mm 0.00 in0.0 mm 0.00 in0.0 mm
04:29 PM 47.6°F8.7°C 23.9°F-4.5°C 34% Calm Calm -- 30.41 in1029.8 mb 0.00 in0.0 mm 0.00 in0.0 mm 0.00 in0.0 mm
04:27 PM 47.4°F8.6°C 22.5°F-5.3°C 32% Calm Calm 1.1 mph1.8 kmh 30.41 in1029.8 mb 0.00 in0.0 mm 0.00 in0.0 mm 0.00 in0.0 mm
04:25 PM 47.2°F8.4°C 22.9°F-5.1°C 33% Calm Calm -- 30.41 in1029.8 mb 0.00 in0.0 mm 0.00 in0.0 mm 0.00 in0.0 mm
04:23 PM 47.1°F8.4°C 20.9°F-6.2°C 30% Calm Calm -- 30.41 in1029.8 mb 0.00 in0.0 mm 0.00 in0.0 mm 0.00 in0.0 mm
04:21 PM 47.0°F8.3°C 20.1°F-6.6°C 29% Calm Calm -- 30.41 in1029.8 mb 0.00 in0.0 mm 0.00 in0.0 mm 0.00 in0.0 mm
04:19 PM 47.1°F8.4°C 21.5°F-5.8°C 31% Calm Calm 3.4 mph5.5 kmh 30.41 in1029.8 mb 0.00 in0.0 mm 0.00 in0.0 mm 0.00 in0.0 mm
04:17 PM 47.2°F8.4°C 22.9°F-5.1°C 33% Calm Calm -- 30.41 in1029.8 mb 0.00 in0.0 mm 0.00 in0.0 mm 0.00 in0.0 mm
04:15 PM 47.3°F8.5°C 20.4°F-6.4°C 29% Calm Calm 8.0 mph12.9 kmh 30.41 in1029.8 mb 0.00 in0.0 mm 0.00 in0.0 mm 0.00 in0.0 mm
04:13 PM 47.3°F8.5°C 23.0°F-5.0°C 33% Calm Calm 10.3 mph16.6 kmh 30.41 in1029.8 mb 0.00 in0.0 mm 0.00 in0.0 mm 0.00 in0.0 mm
04:11 PM 47.2°F8.4°C 22.9°F-5.1°C 33% 3.0 mph NE4.8 kmh NE 5.7 mph9.2 kmh 30.41 in1029.8 mb 0.00 in0.0 mm 0.00 in0.0 mm 0.00 in0.0 mm
04:09 PM 46.9°F8.3°C 22.0°F-5.6°C 32% Calm Calm -- 30.41 in1029.8 mb 0.00 in0.0 mm 0.00 in0.0 mm 0.00 in0.0 mm
04:07 PM 46.7°F8.2°C 21.2°F-6.0°C 31% Calm Calm -- 30.41 in1029.8 mb 0.00 in0.0 mm 0.00 in0.0 mm 0.00 in0.0 mm
04:05 PM 46.6°F8.1°C 21.1°F-6.1°C 31% Calm Calm -- 30.41 in1029.8 mb 0.00 in0.0 mm 0.00 in0.0 mm 0.00 in0.0 mm
04:03 PM 46.4°F8.0°C 22.2°F-5.4°C 33% Calm Calm -- 30.41 in1029.8 mb 0.00 in0.0 mm 0.00 in0.0 mm 0.00 in0.0 mm
04:01 PM 46.4°F8.0°C 22.2°F-5.4°C 33% Calm Calm -- 30.41 in1029.8 mb 0.00 in0.0 mm 0.00 in0.0 mm 0.00 in0.0 mm
03:59 PM 46.4°F8.0°C 21.6°F-5.8°C 32% Calm Calm -- 30.41 in1029.8 mb 0.00 in0.0 mm 0.00 in0.0 mm 0.00 in0.0 mm
03:57 PM 46.5°F8.1°C 21.6°F-5.8°C 32% Calm Calm -- 30.41 in1029.8 mb 0.00 in0.0 mm 0.00 in0.0 mm 0.00 in0.0 mm
03:55 PM 46.6°F8.1°C 21.1°F-6.1°C 31% Calm Calm 1.1 mph1.8 kmh 30.41 in1029.8 mb 0.00 in0.0 mm 0.00 in0.0 mm 0.00 in0.0 mm
03:53 PM 46.7°F8.2°C 21.2°F-6.0°C 31% Calm Calm 1.1 mph1.8 kmh 30.41 in1029.8 mb 0.00 in0.0 mm 0.00 in0.0 mm 0.00 in0.0 mm
03:51 PM 46.9°F8.3°C 22.0°F-5.6°C 32% Calm Calm 11.4 mph18.3 kmh 30.41 in1029.8 mb 0.00 in0.0 mm 0.00 in0.0 mm 0.00 in0.0 mm
03:49 PM 46.8°F8.2°C 23.2°F-4.9°C 34% Calm Calm -- 30.41 in1029.8 mb 0.00 in0.0 mm 0.00 in0.0 mm 0.00 in0.0 mm
03:47 PM 46.6°F8.1°C 20.4°F-6.4°C 30% Calm Calm -- 30.41 in1029.8 mb 0.00 in0.0 mm 0.00 in0.0 mm 0.00 in0.0 mm
03:45 PM 46.3°F7.9°C 22.7°F-5.2°C 34% Calm Calm -- 30.41 in1029.8 mb 0.00 in0.0 mm 0.00 in0.0 mm 0.00 in0.0 mm
03:43 PM 46.1°F7.8°C 21.3°F-5.9°C 32% Calm Calm -- 30.42 in1030.1 mb 0.00 in0.0 mm 0.00 in0.0 mm 0.00 in0.0 mm
03:41 PM 45.8°F7.7°C 24.0°F-4.4°C 37% Calm Calm -- 30.42 in1030.1 mb 0.00 in0.0 mm 0.00 in0.0 mm 0.00 in0.0 mm
03:39 PM 45.8°F7.7°C 21.0°F-6.1°C 32% Calm Calm 2.3 mph3.7 kmh 30.42 in1030.1 mb 0.00 in0.0 mm 0.00 in0.0 mm 0.00 in0.0 mm
03:37 PM 46.0°F7.8°C 21.2°F-6.0°C 32% 1.0 mph N1.6 kmh N 2.3 mph3.7 kmh 30.42 in1030.1 mb 0.00 in0.0 mm 0.00 in0.0 mm 0.00 in0.0 mm
03:35 PM 46.0°F7.8°C 21.8°F-5.7°C 33% Calm Calm 2.3 mph3.7 kmh 30.42 in1030.1 mb 0.00 in0.0 mm 0.00 in0.0 mm 0.00 in0.0 mm
03:33 PM 46.1°F7.8°C 21.3°F-5.9°C 32% Calm Calm 10.3 mph16.6 kmh 30.42 in1030.1 mb 0.00 in0.0 mm 0.00 in0.0 mm 0.00 in0.0 mm
03:31 PM 46.1°F7.8°C 23.1°F-4.9°C 35% Calm Calm 10.3 mph16.6 kmh 30.42 in1030.1 mb 0.00 in0.0 mm 0.00 in0.0 mm 0.00 in0.0 mm
03:29 PM 46.0°F7.8°C 22.4°F-5.3°C 34% Calm Calm 2.3 mph3.7 kmh 30.42 in1030.1 mb 0.00 in0.0 mm 0.00 in0.0 mm 0.00 in0.0 mm
03:27 PM 45.8°F7.7°C 22.9°F-5.1°C 35% Calm Calm 1.1 mph1.8 kmh 30.42 in1030.1 mb 0.00 in0.0 mm 0.00 in0.0 mm 0.00 in0.0 mm
03:25 PM 45.7°F7.6°C 21.6°F-5.8°C 33% Calm Calm -- 30.42 in1030.1 mb 0.00 in0.0 mm 0.00 in0.0 mm 0.00 in0.0 mm
03:23 PM 45.8°F7.7°C 21.0°F-6.1°C 32% Calm Calm 3.4 mph5.5 kmh 30.42 in1030.1 mb 0.00 in0.0 mm 0.00 in0.0 mm 0.00 in0.0 mm
03:21 PM 45.7°F7.6°C 22.8°F-5.1°C 35% Calm Calm -- 30.42 in1030.1 mb 0.00 in0.0 mm 0.00 in0.0 mm 0.00 in0.0 mm
03:19 PM 45.7°F7.6°C 22.2°F-5.4°C 34% Calm Calm -- 30.42 in1030.1 mb 0.00 in0.0 mm 0.00 in0.0 mm 0.00 in0.0 mm
03:17 PM 45.8°F7.7°C 21.0°F-6.1°C 32% Calm Calm -- 30.42 in1030.1 mb 0.00 in0.0 mm 0.00 in0.0 mm 0.00 in0.0 mm
03:15 PM 45.8°F7.7°C 21.0°F-6.1°C 32% Calm Calm 3.4 mph5.5 kmh 30.43 in1030.5 mb 0.00 in0.0 mm 0.00 in0.0 mm 0.00 in0.0 mm
03:13 PM 45.8°F7.7°C 21.7°F-5.7°C 33% Calm Calm 3.4 mph5.5 kmh 30.43 in1030.5 mb 0.00 in0.0 mm 0.00 in0.0 mm 0.00 in0.0 mm
03:11 PM 45.7°F7.6°C 22.8°F-5.1°C 35% Calm Calm 10.3 mph16.6 kmh 30.42 in1030.1 mb 0.00 in0.0 mm 0.00 in0.0 mm 0.00 in0.0 mm
03:09 PM 45.6°F7.6°C 20.8°F-6.2°C 32% Calm Calm -- 30.42 in1030.1 mb 0.00 in0.0 mm 0.00 in0.0 mm 0.00 in0.0 mm
03:07 PM 45.5°F7.5°C 23.8°F-4.6°C 37% Calm Calm 1.1 mph1.8 kmh 30.43 in1030.5 mb 0.00 in0.0 mm 0.00 in0.0 mm 0.00 in0.0 mm
03:05 PM 45.4°F7.4°C 22.5°F-5.3°C 35% Calm Calm -- 30.43 in1030.5 mb 0.00 in0.0 mm 0.00 in0.0 mm 0.00 in0.0 mm
03:03 PM 45.3°F7.4°C 22.4°F-5.3°C 35% Calm Calm -- 30.43 in1030.5 mb 0.00 in0.0 mm 0.00 in0.0 mm 0.00 in0.0 mm
03:01 PM 45.3°F7.4°C 22.4°F-5.3°C 35% Calm Calm -- 30.43 in1030.5 mb 0.00 in0.0 mm 0.00 in0.0 mm 0.00 in0.0 mm
02:59 PM 45.1°F7.3°C 23.4°F-4.8°C 37% Calm Calm 9.1 mph14.6 kmh 30.43 in1030.5 mb 0.00 in0.0 mm 0.00 in0.0 mm 0.00 in0.0 mm
02:57 PM 44.8°F7.1°C 23.1°F-4.9°C 37% Calm Calm -- 30.43 in1030.5 mb 0.00 in0.0 mm 0.00 in0.0 mm 0.00 in0.0 mm
02:55 PM 44.6°F7.0°C 20.6°F-6.3°C 33% Calm Calm -- 30.43 in1030.5 mb 0.00 in0.0 mm 0.00 in0.0 mm 0.00 in0.0 mm
02:53 PM 44.6°F7.0°C 21.8°F-5.7°C 35% Calm Calm -- 30.43 in1030.5 mb 0.00 in0.0 mm 0.00 in0.0 mm 0.00 in0.0 mm
02:51 PM 44.7°F7.1°C 22.5°F-5.3°C 36% Calm Calm -- 30.43 in1030.5 mb 0.00 in0.0 mm 0.00 in0.0 mm 0.00 in0.0 mm
02:49 PM 44.6°F7.0°C 21.2°F-6.0°C 34% Calm Calm -- 30.43 in1030.5 mb 0.00 in0.0 mm 0.00 in0.0 mm 0.00 in0.0 mm
02:47 PM 44.6°F7.0°C 20.6°F-6.3°C 33% Calm Calm 3.4 mph5.5 kmh 30.43 in1030.5 mb 0.00 in0.0 mm 0.00 in0.0 mm 0.00 in0.0 mm
02:45 PM 44.6°F7.0°C 22.4°F-5.3°C 36% Calm Calm 1.1 mph1.8 kmh 30.43 in1030.5 mb 0.00 in0.0 mm 0.00 in0.0 mm 0.00 in0.0 mm
02:43 PM 44.5°F6.9°C 21.1°F-6.1°C 34% Calm Calm -- 30.44 in1030.8 mb 0.00 in0.0 mm 0.00 in0.0 mm 0.00 in0.0 mm
02:41 PM 44.3°F6.8°C 22.1°F-5.5°C 36% Calm Calm -- 30.44 in1030.8 mb 0.00 in0.0 mm 0.00 in0.0 mm 0.00 in0.0 mm
02:39 PM 44.2°F6.8°C 23.1°F-4.9°C 38% Calm Calm -- 30.44 in1030.8 mb 0.00 in0.0 mm 0.00 in0.0 mm 0.00 in0.0 mm
02:37 PM 44.1°F6.7°C 21.3°F-5.9°C 35% Calm Calm -- 30.44 in1030.8 mb 0.00 in0.0 mm 0.00 in0.0 mm 0.00 in0.0 mm
02:35 PM 44.1°F6.7°C 21.3°F-5.9°C 35% Calm Calm -- 30.44 in1030.8 mb 0.00 in0.0 mm 0.00 in0.0 mm 0.00 in0.0 mm
02:33 PM 44.2°F6.8°C 20.8°F-6.2°C 34% Calm Calm -- 30.44 in1030.8 mb 0.00 in0.0 mm 0.00 in0.0 mm 0.00 in0.0 mm
02:31 PM 44.3°F6.8°C 21.5°F-5.8°C 35% Calm Calm -- 30.44 in1030.8 mb 0.00 in0.0 mm 0.00 in0.0 mm 0.00 in0.0 mm
02:29 PM 44.4°F6.9°C 24.4°F-4.2°C 40% Calm Calm 1.1 mph1.8 kmh 30.44 in1030.8 mb 0.00 in0.0 mm 0.00 in0.0 mm 0.00 in0.0 mm
02:27 PM 44.2°F6.8°C 23.7°F-4.6°C 39% Calm Calm -- 30.44 in1030.8 mb 0.00 in0.0 mm 0.00 in0.0 mm 0.00 in0.0 mm
02:25 PM 44.2°F6.8°C 22.6°F-5.2°C 37% Calm Calm -- 30.44 in1030.8 mb 0.00 in0.0 mm 0.00 in0.0 mm 0.00 in0.0 mm
02:23 PM 44.1°F6.7°C 20.7°F-6.3°C 34% Calm Calm -- 30.44 in1030.8 mb 0.00 in0.0 mm 0.00 in0.0 mm 0.00 in0.0 mm
02:21 PM 44.0°F6.7°C 21.8°F-5.7°C 36% Calm Calm -- 30.44 in1030.8 mb 0.00 in0.0 mm 0.00 in0.0 mm 0.00 in0.0 mm
02:19 PM 43.8°F6.6°C 21.1°F-6.1°C 35% Calm Calm 3.4 mph5.5 kmh 30.44 in1030.8 mb 0.00 in0.0 mm 0.00 in0.0 mm 0.00 in0.0 mm
02:17 PM 43.8°F6.6°C 22.2°F-5.4°C 37% Calm Calm -- 30.44 in1030.8 mb 0.00 in0.0 mm 0.00 in0.0 mm 0.00 in0.0 mm
02:15 PM 43.4°F6.3°C 20.7°F-6.3°C 35% Calm Calm -- 30.44 in1030.8 mb 0.00 in0.0 mm 0.00 in0.0 mm 0.00 in0.0 mm
02:13 PM 43.2°F6.2°C 22.2°F-5.4°C 38% Calm Calm -- 30.44 in1030.8 mb 0.00 in0.0 mm 0.00 in0.0 mm 0.00 in0.0 mm
02:11 PM 42.9°F6.1°C 23.0°F-5.0°C 40% Calm Calm -- 30.45 in1031.2 mb 0.00 in0.0 mm 0.00 in0.0 mm 0.00 in0.0 mm
02:09 PM 42.6°F5.9°C 22.2°F-5.4°C 39% Calm Calm -- 30.45 in1031.2 mb 0.00 in0.0 mm 0.00 in0.0 mm 0.00 in0.0 mm
02:07 PM 42.5°F5.8°C 21.0°F-6.1°C 37% Calm Calm -- 30.45 in1031.2 mb 0.00 in0.0 mm 0.00 in0.0 mm 0.00 in0.0 mm
02:05 PM 42.7°F5.9°C 20.7°F-6.3°C 36% Calm Calm -- 30.45 in1031.2 mb 0.00 in0.0 mm 0.00 in0.0 mm 0.00 in0.0 mm
02:03 PM 42.8°F6.0°C 21.3°F-5.9°C 37% Calm Calm 3.4 mph5.5 kmh 30.45 in1031.2 mb 0.00 in0.0 mm 0.00 in0.0 mm 0.00 in0.0 mm
02:01 PM 42.8°F6.0°C 22.4°F-5.3°C 39% 3.0 mph NE4.8 kmh NE 3.4 mph5.5 kmh 30.45 in1031.2 mb 0.00 in0.0 mm 0.00 in0.0 mm 0.00 in0.0 mm
01:59 PM 43.0°F6.1°C 20.9°F-6.2°C 36% Calm Calm -- 30.45 in1031.2 mb 0.00 in0.0 mm 0.00 in0.0 mm 0.00 in0.0 mm
01:57 PM 43.1°F6.2°C 22.7°F-5.2°C 39% Calm Calm -- 30.45 in1031.2 mb 0.00 in0.0 mm 0.00 in0.0 mm 0.00 in0.0 mm
01:55 PM 43.3°F6.3°C 22.9°F-5.1°C 39% Calm Calm 8.0 mph12.9 kmh 30.45 in1031.2 mb 0.00 in0.0 mm 0.00 in0.0 mm 0.00 in0.0 mm
01:53 PM 43.1°F6.2°C 25.7°F-3.5°C 45% Calm Calm 8.0 mph12.9 kmh 30.45 in1031.2 mb 0.00 in0.0 mm 0.00 in0.0 mm 0.00 in0.0 mm
01:51 PM 42.8°F6.0°C 22.4°F-5.3°C 39% Calm Calm 1.1 mph1.8 kmh 30.45 in1031.2 mb 0.00 in0.0 mm 0.00 in0.0 mm 0.00 in0.0 mm
01:49 PM 42.5°F5.8°C 23.7°F-4.6°C 42% Calm Calm -- 30.45 in1031.2 mb 0.00 in0.0 mm 0.00 in0.0 mm 0.00 in0.0 mm
01:47 PM 42.1°F5.6°C 22.8°F-5.1°C 41% Calm Calm -- 30.45 in1031.2 mb 0.00 in0.0 mm 0.00 in0.0 mm 0.00 in0.0 mm
01:45 PM 42.0°F5.6°C 25.7°F-3.5°C 47% Calm Calm -- 30.45 in1031.2 mb 0.00 in0.0 mm 0.00 in0.0 mm 0.00 in0.0 mm
01:43 PM 41.9°F5.5°C 21.6°F-5.8°C 39% Calm Calm -- 30.45 in1031.2 mb 0.00 in0.0 mm 0.00 in0.0 mm 0.00 in0.0 mm
01:41 PM 42.1°F5.6°C 21.8°F-5.7°C 39% Calm Calm -- 30.45 in1031.2 mb 0.00 in0.0 mm 0.00 in0.0 mm 0.00 in0.0 mm
01:39 PM 42.2°F5.7°C 23.9°F-4.5°C 43% Calm Calm -- 30.45 in1031.2 mb 0.00 in0.0 mm 0.00 in0.0 mm 0.00 in0.0 mm
01:37 PM 42.3°F5.7°C 23.5°F-4.7°C 42% Calm Calm -- 30.45 in1031.2 mb 0.00 in0.0 mm 0.00 in0.0 mm 0.00 in0.0 mm
01:35 PM 42.3°F5.7°C 22.5°F-5.3°C 40% Calm Calm 1.1 mph1.8 kmh 30.45 in1031.2 mb 0.00 in0.0 mm 0.00 in0.0 mm 0.00 in0.0 mm
01:33 PM 42.2°F5.7°C 22.4°F-5.3°C 40% Calm Calm -- 30.45 in1031.2 mb 0.00 in0.0 mm 0.00 in0.0 mm 0.00 in0.0 mm
01:31 PM 42.0°F5.6°C 22.7°F-5.2°C 41% Calm Calm 6.8 mph10.9 kmh 30.45 in1031.2 mb 0.00 in0.0 mm 0.00 in0.0 mm 0.00 in0.0 mm
01:29 PM 42.0°F5.6°C 21.7°F-5.7°C 39% 2.0 mph NNE3.2 kmh NNE 2.3 mph3.7 kmh 30.45 in1031.2 mb 0.00 in0.0 mm 0.00 in0.0 mm 0.00 in0.0 mm
01:27 PM 41.7°F5.4°C 23.0°F-5.0°C 42% Calm Calm 1.1 mph1.8 kmh 30.45 in1031.2 mb 0.00 in0.0 mm 0.00 in0.0 mm 0.00 in0.0 mm
01:25 PM 41.6°F5.3°C 20.8°F-6.2°C 38% Calm Calm 1.1 mph1.8 kmh 30.45 in1031.2 mb 0.00 in0.0 mm 0.00 in0.0 mm 0.00 in0.0 mm
01:23 PM 41.6°F5.3°C 23.4°F-4.8°C 43% Calm Calm -- 30.45 in1031.2 mb 0.00 in0.0 mm 0.00 in0.0 mm 0.00 in0.0 mm
01:21 PM 41.5°F5.3°C 21.2°F-6.0°C 39% Calm Calm 5.7 mph9.2 kmh 30.45 in1031.2 mb 0.00 in0.0 mm 0.00 in0.0 mm 0.00 in0.0 mm
01:19 PM 41.4°F5.2°C 23.7°F-4.6°C 44% Calm Calm -- 30.45 in1031.2 mb 0.00 in0.0 mm 0.00 in0.0 mm 0.00 in0.0 mm
01:17 PM 41.2°F5.1°C 24.0°F-4.4°C 45% Calm Calm -- 30.45 in1031.2 mb 0.00 in0.0 mm 0.00 in0.0 mm 0.00 in0.0 mm
01:15 PM 41.0°F5.0°C 21.3°F-5.9°C 40% Calm Calm 1.1 mph1.8 kmh 30.45 in1031.2 mb 0.00 in0.0 mm 0.00 in0.0 mm 0.00 in0.0 mm
01:13 PM 40.8°F4.9°C 22.1°F-5.5°C 42% Calm Calm -- 30.46 in1031.5 mb 0.00 in0.0 mm 0.00 in0.0 mm 0.00 in0.0 mm
01:11 PM 40.9°F4.9°C 21.7°F-5.7°C 41% Calm Calm -- 30.46 in1031.5 mb 0.00 in0.0 mm 0.00 in0.0 mm 0.00 in0.0 mm
01:09 PM 41.1°F5.1°C 23.4°F-4.8°C 44% Calm Calm 1.1 mph1.8 kmh 30.46 in1031.5 mb 0.00 in0.0 mm 0.00 in0.0 mm 0.00 in0.0 mm
01:07 PM 41.1°F5.1°C 22.9°F-5.1°C 43% Calm Calm -- 30.45 in1031.2 mb 0.00 in0.0 mm 0.00 in0.0 mm 0.00 in0.0 mm
01:05 PM 40.9°F4.9°C 23.2°F-4.9°C 44% Calm Calm -- 30.46 in1031.5 mb 0.00 in0.0 mm 0.00 in0.0 mm 0.00 in0.0 mm
01:03 PM 40.9°F4.9°C 22.2°F-5.4°C 42% Calm Calm 3.4 mph5.5 kmh 30.46 in1031.5 mb 0.00 in0.0 mm 0.00 in0.0 mm 0.00 in0.0 mm
01:01 PM 40.9°F4.9°C 22.7°F-5.2°C 43% Calm Calm -- 30.46 in1031.5 mb 0.00 in0.0 mm 0.00 in0.0 mm 0.00 in0.0 mm
12:59 PM 40.6°F4.8°C 23.4°F-4.8°C 45% Calm Calm -- 30.46 in1031.5 mb 0.00 in0.0 mm 0.00 in0.0 mm 0.00 in0.0 mm
12:57 PM 40.4°F4.7°C 23.2°F-4.9°C 45% Calm Calm -- 30.46 in1031.5 mb 0.00 in0.0 mm 0.00 in0.0 mm 0.00 in0.0 mm
12:55 PM 40.4°F4.7°C 22.3°F-5.4°C 43% Calm Calm -- 30.46 in1031.5 mb 0.00 in0.0 mm 0.00 in0.0 mm 0.00 in0.0 mm
12:53 PM 40.6°F4.8°C 22.5°F-5.3°C 43% Calm Calm -- 30.46 in1031.5 mb 0.00 in0.0 mm 0.00 in0.0 mm 0.00 in0.0 mm
12:51 PM 40.6°F4.8°C 24.4°F-4.2°C 47% Calm Calm -- 30.46 in1031.5 mb 0.00 in0.0 mm 0.00 in0.0 mm 0.00 in0.0 mm
12:49 PM 40.4°F4.7°C 22.8°F-5.1°C 44% Calm Calm -- 30.46 in1031.5 mb 0.00 in0.0 mm 0.00 in0.0 mm 0.00 in0.0 mm
12:47 PM 40.4°F4.7°C 22.3°F-5.4°C 43% Calm Calm -- 30.46 in1031.5 mb 0.00 in0.0 mm 0.00 in0.0 mm 0.00 in0.0 mm
12:45 PM 40.5°F4.7°C 21.9°F-5.6°C 42% Calm Calm -- 30.46 in1031.5 mb 0.00 in0.0 mm 0.00 in0.0 mm 0.00 in0.0 mm
12:43 PM 40.4°F4.7°C 23.7°F-4.6°C 46% Calm Calm -- 30.46 in1031.5 mb 0.00 in0.0 mm 0.00 in0.0 mm 0.00 in0.0 mm
12:41 PM 40.4°F4.7°C 24.2°F-4.3°C 47% Calm Calm -- 30.46 in1031.5 mb 0.00 in0.0 mm 0.00 in0.0 mm 0.00 in0.0 mm
12:39 PM 40.2°F4.6°C 23.1°F-4.9°C 45% Calm Calm -- 30.46 in1031.5 mb 0.00 in0.0 mm 0.00 in0.0 mm 0.00 in0.0 mm
12:37 PM 40.0°F4.4°C 22.4°F-5.3°C 44% Calm Calm -- 30.46 in1031.5 mb 0.00 in0.0 mm 0.00 in0.0 mm 0.00 in0.0 mm
12:35 PM 39.7°F4.3°C 23.5°F-4.7°C 47% Calm Calm -- 30.46 in1031.5 mb 0.00 in0.0 mm 0.00 in0.0 mm 0.00 in0.0 mm
12:33 PM 39.3°F4.1°C 23.2°F-4.9°C 47% Calm Calm -- 30.46 in1031.5 mb 0.00 in0.0 mm 0.00 in0.0 mm 0.00 in0.0 mm
12:31 PM 39.1°F3.9°C 22.5°F-5.3°C 46% 11.0 mph NE17.7 kmh NE 11.4 mph18.3 kmh 30.46 in1031.5 mb 0.00 in0.0 mm 0.00 in0.0 mm 0.00 in0.0 mm
12:29 PM 39.0°F3.9°C 21.5°F-5.8°C 44% 1.0 mph SSW1.6 kmh SSW 4.6 mph7.4 kmh 30.46 in1031.5 mb 0.00 in0.0 mm 0.00 in0.0 mm 0.00 in0.0 mm
12:27 PM 38.9°F3.8°C 24.6°F-4.1°C 51% Calm Calm 1.1 mph1.8 kmh 30.46 in1031.5 mb 0.00 in0.0 mm 0.00 in0.0 mm 0.00 in0.0 mm
12:25 PM 38.9°F3.8°C 22.3°F-5.4°C 46% Calm Calm -- 30.46 in1031.5 mb 0.00 in0.0 mm 0.00 in0.0 mm 0.00 in0.0 mm
12:23 PM 38.9°F3.8°C 23.7°F-4.6°C 49% Calm Calm -- 30.47 in1031.8 mb 0.00 in0.0 mm 0.00 in0.0 mm 0.00 in0.0 mm
12:21 PM 38.9°F3.8°C 23.2°F-4.9°C 48% Calm Calm 5.7 mph9.2 kmh 30.46 in1031.5 mb 0.00 in0.0 mm 0.00 in0.0 mm 0.00 in0.0 mm
12:19 PM 38.9°F3.8°C 23.7°F-4.6°C 49% Calm Calm 1.1 mph1.8 kmh 30.47 in1031.8 mb 0.00 in0.0 mm 0.00 in0.0 mm 0.00 in0.0 mm
12:17 PM 38.9°F3.8°C 24.1°F-4.4°C 50% Calm Calm 5.7 mph9.2 kmh 30.46 in1031.5 mb 0.00 in0.0 mm 0.00 in0.0 mm 0.00 in0.0 mm
12:15 PM 38.7°F3.7°C 22.6°F-5.2°C 47% Calm Calm -- 30.46 in1031.5 mb 0.00 in0.0 mm 0.00 in0.0 mm 0.00 in0.0 mm
12:13 PM 38.8°F3.8°C 23.2°F-4.9°C 48% Calm Calm 5.7 mph9.2 kmh 30.46 in1031.5 mb 0.00 in0.0 mm 0.00 in0.0 mm 0.00 in0.0 mm
12:11 PM 38.7°F3.7°C 23.9°F-4.5°C 50% Calm Calm -- 30.46 in1031.5 mb 0.00 in0.0 mm 0.00 in0.0 mm 0.00 in0.0 mm
12:09 PM 38.6°F3.7°C 22.5°F-5.3°C 47% Calm Calm -- 30.46 in1031.5 mb 0.00 in0.0 mm 0.00 in0.0 mm 0.00 in0.0 mm
12:07 PM 38.5°F3.6°C 22.4°F-5.3°C 47% Calm Calm -- 30.46 in1031.5 mb 0.00 in0.0 mm 0.00 in0.0 mm 0.00 in0.0 mm
12:05 PM 38.5°F3.6°C 22.9°F-5.1°C 48% Calm Calm 8.0 mph12.9 kmh 30.46 in1031.5 mb 0.00 in0.0 mm 0.00 in0.0 mm 0.00 in0.0 mm
12:03 PM 38.1°F3.4°C 23.4°F-4.8°C 50% Calm Calm -- 30.47 in1031.8 mb 0.00 in0.0 mm 0.00 in0.0 mm 0.00 in0.0 mm
12:01 PM 37.8°F3.2°C 22.7°F-5.2°C 49% Calm Calm 2.3 mph3.7 kmh 30.47 in1031.8 mb 0.00 in0.0 mm 0.00 in0.0 mm 0.00 in0.0 mm
11:59 AM 37.4°F3.0°C 23.2°F-4.9°C 51% Calm Calm 1.1 mph1.8 kmh 30.47 in1031.8 mb 0.00 in0.0 mm 0.00 in0.0 mm 0.00 in0.0 mm
11:57 AM 37.2°F2.9°C 20.8°F-6.2°C 46% Calm Calm 8.0 mph12.9 kmh 30.47 in1031.8 mb 0.00 in0.0 mm 0.00 in0.0 mm 0.00 in0.0 mm
11:55 AM 37.0°F2.8°C 21.9°F-5.6°C 49% Calm Calm 8.0 mph12.9 kmh 30.47 in1031.8 mb 0.00 in0.0 mm 0.00 in0.0 mm 0.00 in0.0 mm
11:53 AM 36.8°F2.7°C 21.7°F-5.7°C 49% Calm Calm -- 30.47 in1031.8 mb 0.00 in0.0 mm 0.00 in0.0 mm 0.00 in0.0 mm
11:51 AM 36.8°F2.7°C 20.8°F-6.2°C 47% Calm Calm -- 30.47 in1031.8 mb 0.00 in0.0 mm 0.00 in0.0 mm 0.00 in0.0 mm
11:49 AM 36.9°F2.7°C 20.9°F-6.2°C 47% Calm Calm -- 30.47 in1031.8 mb 0.00 in0.0 mm 0.00 in0.0 mm 0.00 in0.0 mm
11:47 AM 37.0°F2.8°C 20.6°F-6.3°C 46% Calm Calm 1.1 mph1.8 kmh 30.47 in1031.8 mb 0.00 in0.0 mm 0.00 in0.0 mm 0.00 in0.0 mm
11:45 AM 37.1°F2.8°C 20.7°F-6.3°C 46% Calm Calm 11.4 mph18.3 kmh 30.47 in1031.8 mb 0.00 in0.0 mm 0.00 in0.0 mm 0.00 in0.0 mm
11:43 AM 37.3°F2.9°C 21.3°F-5.9°C 47% 1.0 mph NNE1.6 kmh NNE 4.6 mph7.4 kmh 30.47 in1031.8 mb 0.00 in0.0 mm 0.00 in0.0 mm 0.00 in0.0 mm
11:41 AM 37.0°F2.8°C 22.8°F-5.1°C 51% Calm Calm -- 30.47 in1031.8 mb 0.00 in0.0 mm 0.00 in0.0 mm 0.00 in0.0 mm
11:39 AM 36.7°F2.6°C 23.3°F-4.8°C 53% Calm Calm -- 30.47 in1031.8 mb 0.00 in0.0 mm 0.00 in0.0 mm 0.00 in0.0 mm
11:37 AM 36.3°F2.4°C 22.5°F-5.3°C 52% Calm Calm -- 30.47 in1031.8 mb 0.00 in0.0 mm 0.00 in0.0 mm 0.00 in0.0 mm
11:35 AM 36.1°F2.3°C 21.1°F-6.1°C 49% Calm Calm 6.8 mph10.9 kmh 30.47 in1031.8 mb 0.00 in0.0 mm 0.00 in0.0 mm 0.00 in0.0 mm
11:33 AM 36.1°F2.3°C 20.6°F-6.3°C 48% Calm Calm 6.8 mph10.9 kmh 30.46 in1031.5 mb 0.00 in0.0 mm 0.00 in0.0 mm 0.00 in0.0 mm
11:31 AM 36.0°F2.2°C 21.4°F-5.9°C 50% Calm Calm -- 30.47 in1031.8 mb 0.00 in0.0 mm 0.00 in0.0 mm 0.00 in0.0 mm
11:29 AM 35.7°F2.1°C 20.3°F-6.5°C 48% Calm Calm 13.7 mph22.0 kmh 30.46 in1031.5 mb 0.00 in0.0 mm 0.00 in0.0 mm 0.00 in0.0 mm
11:27 AM 35.4°F1.9°C 20.9°F-6.2°C 50% Calm Calm -- 30.47 in1031.8 mb 0.00 in0.0 mm 0.00 in0.0 mm 0.00 in0.0 mm
11:25 AM 35.3°F1.8°C 19.9°F-6.7°C 48% Calm Calm 9.1 mph14.6 kmh 30.47 in1031.8 mb 0.00 in0.0 mm 0.00 in0.0 mm 0.00 in0.0 mm
11:23 AM 35.1°F1.7°C 20.6°F-6.3°C 50% Calm Calm -- 30.46 in1031.5 mb 0.00 in0.0 mm 0.00 in0.0 mm 0.00 in0.0 mm
11:21 AM 34.8°F1.6°C 19.9°F-6.7°C 49% Calm Calm -- 30.46 in1031.5 mb 0.00 in0.0 mm 0.00 in0.0 mm 0.00 in0.0 mm
11:19 AM 34.9°F1.6°C 19.5°F-6.9°C 48% Calm Calm 13.7 mph22.0 kmh 30.47 in1031.8 mb 0.00 in0.0 mm 0.00 in0.0 mm 0.00 in0.0 mm
11:17 AM 35.2°F1.8°C 19.8°F-6.8°C 48% Calm Calm 10.3 mph16.6 kmh 30.46 in1031.5 mb 0.00 in0.0 mm 0.00 in0.0 mm 0.00 in0.0 mm
11:15 AM 35.3°F1.8°C 20.3°F-6.5°C 49% Calm Calm 10.3 mph16.6 kmh 30.46 in1031.5 mb 0.00 in0.0 mm 0.00 in0.0 mm 0.00 in0.0 mm
11:13 AM 35.2°F1.8°C 20.7°F-6.3°C 50% Calm Calm -- 30.46 in1031.5 mb 0.00 in0.0 mm 0.00 in0.0 mm 0.00 in0.0 mm
11:11 AM 35.0°F1.7°C 20.1°F-6.6°C 49% Calm Calm 11.4 mph18.3 kmh 30.46 in1031.5 mb 0.00 in0.0 mm 0.00 in0.0 mm 0.00 in0.0 mm
11:09 AM 35.0°F1.7°C 19.2°F-7.1°C 47% Calm Calm 11.4 mph18.3 kmh 30.46 in1031.5 mb 0.00 in0.0 mm 0.00 in0.0 mm 0.00 in0.0 mm
11:07 AM 35.1°F1.7°C 19.3°F-7.1°C 47% Calm Calm 11.4 mph18.3 kmh 30.46 in1031.5 mb 0.00 in0.0 mm 0.00 in0.0 mm 0.00 in0.0 mm
11:05 AM 35.2°F1.8°C 19.8°F-6.8°C 48% Calm Calm -- 30.46 in1031.5 mb 0.00 in0.0 mm 0.00 in0.0 mm 0.00 in0.0 mm
11:03 AM 35.1°F1.7°C 20.1°F-6.6°C 49% Calm Calm 5.7 mph9.2 kmh 30.46 in1031.5 mb 0.00 in0.0 mm 0.00 in0.0 mm 0.00 in0.0 mm
11:01 AM 34.9°F1.6°C 20.8°F-6.2°C 51% 3.0 mph ENE4.8 kmh ENE 5.7 mph9.2 kmh 30.46 in1031.5 mb 0.00 in0.0 mm 0.00 in0.0 mm 0.00 in0.0 mm
10:59 AM 34.6°F1.4°C 21.0°F-6.1°C 52% 2.0 mph NNE3.2 kmh NNE 2.3 mph3.7 kmh 30.46 in1031.5 mb 0.00 in0.0 mm 0.00 in0.0 mm 0.00 in0.0 mm
10:57 AM 34.5°F1.4°C 19.6°F-6.9°C 49% Calm Calm -- 30.46 in1031.5 mb 0.00 in0.0 mm 0.00 in0.0 mm 0.00 in0.0 mm
10:55 AM 34.7°F1.5°C 19.3°F-7.1°C 48% Calm Calm 10.3 mph16.6 kmh 30.46 in1031.5 mb 0.00 in0.0 mm 0.00 in0.0 mm 0.00 in0.0 mm
10:53 AM 34.5°F1.4°C 20.0°F-6.7°C 50% Calm Calm 4.6 mph7.4 kmh 30.46 in1031.5 mb 0.00 in0.0 mm 0.00 in0.0 mm 0.00 in0.0 mm
10:51 AM 34.3°F1.3°C 20.7°F-6.3°C 52% Calm Calm 4.6 mph7.4 kmh 30.46 in1031.5 mb 0.00 in0.0 mm 0.00 in0.0 mm 0.00 in0.0 mm
10:49 AM 33.9°F1.1°C 19.9°F-6.7°C 51% 2.0 mph NE3.2 kmh NE 2.3 mph3.7 kmh 30.46 in1031.5 mb 0.00 in0.0 mm 0.00 in0.0 mm 0.00 in0.0 mm
10:47 AM 33.6°F0.9°C 20.0°F-6.7°C 52% Calm Calm -- 30.46 in1031.5 mb 0.00 in0.0 mm 0.00 in0.0 mm 0.00 in0.0 mm
10:45 AM 33.6°F0.9°C 18.8°F-7.3°C 49% Calm Calm 12.5 mph20.1 kmh 30.46 in1031.5 mb 0.00 in0.0 mm 0.00 in0.0 mm 0.00 in0.0 mm
10:43 AM 33.9°F1.1°C 19.5°F-6.9°C 50% Calm Calm 9.1 mph14.6 kmh 30.46 in1031.5 mb 0.00 in0.0 mm 0.00 in0.0 mm 0.00 in0.0 mm
10:41 AM 34.0°F1.1°C 20.4°F-6.4°C 52% Calm Calm 6.8 mph10.9 kmh 30.46 in1031.5 mb 0.00 in0.0 mm 0.00 in0.0 mm 0.00 in0.0 mm
10:39 AM 34.1°F1.2°C 20.1°F-6.6°C 51% Calm Calm 6.8 mph10.9 kmh 30.46 in1031.5 mb 0.00 in0.0 mm 0.00 in0.0 mm 0.00 in0.0 mm
10:37 AM 34.1°F1.2°C 20.1°F-6.6°C 51% Calm Calm 1.1 mph1.8 kmh 30.46 in1031.5 mb 0.00 in0.0 mm 0.00 in0.0 mm 0.00 in0.0 mm
10:35 AM 34.1°F1.2°C 20.1°F-6.6°C 51% Calm Calm 4.6 mph7.4 kmh 30.46 in1031.5 mb 0.00 in0.0 mm 0.00 in0.0 mm 0.00 in0.0 mm
10:33 AM 34.1°F1.2°C 20.1°F-6.6°C 51% Calm Calm 4.6 mph7.4 kmh 30.46 in1031.5 mb 0.00 in0.0 mm 0.00 in0.0 mm 0.00 in0.0 mm
10:31 AM 34.1°F1.2°C 20.1°F-6.6°C 51% Calm Calm -- 30.46 in1031.5 mb 0.00 in0.0 mm 0.00 in0.0 mm 0.00 in0.0 mm
10:29 AM 33.9°F1.1°C 21.1°F-6.1°C 54% Calm Calm -- 30.46 in1031.5 mb 0.00 in0.0 mm 0.00 in0.0 mm 0.00 in0.0 mm
10:27 AM 33.7°F0.9°C 19.7°F-6.8°C 51% Calm Calm 3.4 mph5.5 kmh 30.46 in1031.5 mb 0.00 in0.0 mm 0.00 in0.0 mm 0.00 in0.0 mm
10:25 AM 33.5°F0.8°C 20.7°F-6.3°C 54% Calm Calm -- 30.46 in1031.5 mb 0.00 in0.0 mm 0.00 in0.0 mm 0.00 in0.0 mm
10:23 AM 33.3°F0.7°C 19.7°F-6.8°C 52% Calm Calm 9.1 mph14.6 kmh 30.46 in1031.5 mb 0.00 in0.0 mm 0.00 in0.0 mm 0.00 in0.0 mm
10:21 AM 33.2°F0.7°C 19.2°F-7.1°C 51% 1.0 mph E1.6 kmh E 1.1 mph1.8 kmh 30.46 in1031.5 mb 0.00 in0.0 mm 0.00 in0.0 mm 0.00 in0.0 mm
10:19 AM 33.0°F0.6°C 19.5°F-6.9°C 52% Calm Calm 14.8 mph23.8 kmh 30.46 in1031.5 mb 0.00 in0.0 mm 0.00 in0.0 mm 0.00 in0.0 mm
10:17 AM 32.8°F0.4°C 19.7°F-6.8°C 53% Calm Calm 4.6 mph7.4 kmh 30.46 in1031.5 mb 0.00 in0.0 mm 0.00 in0.0 mm 0.00 in0.0 mm
10:15 AM 32.7°F0.4°C 18.8°F-7.3°C 51% Calm Calm 3.4 mph5.5 kmh 30.46 in1031.5 mb 0.00 in0.0 mm 0.00 in0.0 mm 0.00 in0.0 mm
10:13 AM 32.6°F0.3°C 18.7°F-7.4°C 51% Calm Calm 1.1 mph1.8 kmh 30.46 in1031.5 mb 0.00 in0.0 mm 0.00 in0.0 mm 0.00 in0.0 mm
10:11 AM 32.5°F0.3°C 19.0°F-7.2°C 52% Calm Calm -- 30.46 in1031.5 mb 0.00 in0.0 mm 0.00 in0.0 mm 0.00 in0.0 mm
10:09 AM 32.4°F0.2°C 18.5°F-7.5°C 51% Calm Calm 17.1 mph27.5 kmh 30.46 in1031.5 mb 0.00 in0.0 mm 0.00 in0.0 mm 0.00 in0.0 mm
10:07 AM 32.2°F0.1°C 19.1°F-7.2°C 53% 1.0 mph NE1.6 kmh NE 17.1 mph27.5 kmh 30.46 in1031.5 mb 0.00 in0.0 mm 0.00 in0.0 mm 0.00 in0.0 mm
10:05 AM 32.1°F0.1°C 19.0°F-7.2°C 53% 2.0 mph NNE3.2 kmh NNE 17.1 mph27.5 kmh 30.46 in1031.5 mb 0.00 in0.0 mm 0.00 in0.0 mm 0.00 in0.0 mm
10:03 AM 32.0°F0.0°C 18.9°F-7.3°C 53% Calm Calm 17.1 mph27.5 kmh 30.46 in1031.5 mb 0.00 in0.0 mm 0.00 in0.0 mm 0.00 in0.0 mm
10:01 AM 31.9°F-0.1°C 18.4°F-7.6°C 52% Calm Calm 17.1 mph27.5 kmh 30.45 in1031.2 mb 0.00 in0.0 mm 0.00 in0.0 mm 0.00 in0.0 mm
09:59 AM 31.9°F-0.1°C 18.8°F-7.3°C 53% Calm Calm 17.1 mph27.5 kmh 30.45 in1031.2 mb 0.00 in0.0 mm 0.00 in0.0 mm 0.00 in0.0 mm
09:57 AM 31.8°F-0.1°C 18.7°F-7.4°C 53% Calm Calm 17.1 mph27.5 kmh 30.45 in1031.2 mb 0.00 in0.0 mm 0.00 in0.0 mm 0.00 in0.0 mm
09:55 AM 31.7°F-0.2°C 18.6°F-7.4°C 53% Calm Calm 17.1 mph27.5 kmh 30.45 in1031.2 mb 0.00 in0.0 mm 0.00 in0.0 mm 0.00 in0.0 mm
09:53 AM 31.7°F-0.2°C 18.6°F-7.4°C 53% Calm Calm 16.0 mph25.7 kmh 30.45 in1031.2 mb 0.00 in0.0 mm 0.00 in0.0 mm 0.00 in0.0 mm
09:51 AM 31.7°F-0.2°C 19.0°F-7.2°C 54% Calm Calm 16.0 mph25.7 kmh 30.45 in1031.2 mb 0.00 in0.0 mm 0.00 in0.0 mm 0.00 in0.0 mm
09:49 AM 31.7°F-0.2°C 19.0°F-7.2°C 54% Calm Calm 16.0 mph25.7 kmh 30.45 in1031.2 mb 0.00 in0.0 mm 0.00 in0.0 mm 0.00 in0.0 mm
09:47 AM 31.5°F-0.3°C 18.8°F-7.3°C 54% Calm Calm 12.5 mph20.1 kmh 30.45 in1031.2 mb 0.00 in0.0 mm 0.00 in0.0 mm 0.00 in0.0 mm
09:45 AM 31.4°F-0.3°C 19.1°F-7.2°C 55% 1.0 mph NE1.6 kmh NE 12.5 mph20.1 kmh 30.45 in1031.2 mb 0.00 in0.0 mm 0.00 in0.0 mm 0.00 in0.0 mm
09:43 AM 31.4°F-0.3°C 19.1°F-7.2°C 55% Calm Calm 12.5 mph20.1 kmh 30.45 in1031.2 mb 0.00 in0.0 mm 0.00 in0.0 mm 0.00 in0.0 mm
09:41 AM 31.4°F-0.3°C 19.1°F-7.2°C 55% Calm Calm 12.5 mph20.1 kmh 30.45 in1031.2 mb 0.00 in0.0 mm 0.00 in0.0 mm 0.00 in0.0 mm
09:39 AM 31.3°F-0.4°C 19.0°F-7.2°C 55% 2.0 mph NNE3.2 kmh NNE 12.5 mph20.1 kmh 30.45 in1031.2 mb 0.00 in0.0 mm 0.00 in0.0 mm 0.00 in0.0 mm
09:37 AM 31.3°F-0.4°C 19.0°F-7.2°C 55% 5.0 mph N8.0 kmh N 5.7 mph9.2 kmh 30.45 in1031.2 mb 0.00 in0.0 mm 0.00 in0.0 mm 0.00 in0.0 mm
09:35 AM 31.2°F-0.4°C 19.0°F-7.2°C 55% Calm Calm 16.0 mph25.7 kmh 30.45 in1031.2 mb 0.00 in0.0 mm 0.00 in0.0 mm 0.00 in0.0 mm
09:33 AM 31.1°F-0.5°C 18.9°F-7.3°C 55% Calm Calm 16.0 mph25.7 kmh 30.45 in1031.2 mb 0.00 in0.0 mm 0.00 in0.0 mm 0.00 in0.0 mm
09:31 AM 31.1°F-0.5°C 18.9°F-7.3°C 55% Calm Calm 16.0 mph25.7 kmh 30.45 in1031.2 mb 0.00 in0.0 mm 0.00 in0.0 mm 0.00 in0.0 mm
09:29 AM 31.1°F-0.5°C 18.9°F-7.3°C 55% Calm Calm 16.0 mph25.7 kmh 30.45 in1031.2 mb 0.00 in0.0 mm 0.00 in0.0 mm 0.00 in0.0 mm
09:27 AM 31.0°F-0.6°C 18.8°F-7.3°C 55% Calm Calm 16.0 mph25.7 kmh 30.45 in1031.2 mb 0.00 in0.0 mm 0.00 in0.0 mm 0.00 in0.0 mm
09:25 AM 31.0°F-0.6°C 18.4°F-7.6°C 54% Calm Calm -- 30.45 in1031.2 mb 0.00 in0.0 mm 0.00 in0.0 mm 0.00 in0.0 mm
09:23 AM 30.8°F-0.7°C 19.0°F-7.2°C 56% Calm Calm 3.4 mph5.5 kmh 30.45 in1031.2 mb 0.00 in0.0 mm 0.00 in0.0 mm 0.00 in0.0 mm
09:21 AM 30.6°F-0.8°C 18.8°F-7.3°C 56% Calm Calm -- 30.45 in1031.2 mb 0.00 in0.0 mm 0.00 in0.0 mm 0.00 in0.0 mm
09:19 AM 30.5°F-0.8°C 18.7°F-7.4°C 56% Calm Calm 1.1 mph1.8 kmh 30.45 in1031.2 mb 0.00 in0.0 mm 0.00 in0.0 mm 0.00 in0.0 mm
09:17 AM 30.3°F-0.9°C 18.1°F-7.7°C 55% Calm Calm -- 30.45 in1031.2 mb 0.00 in0.0 mm 0.00 in0.0 mm 0.00 in0.0 mm
09:15 AM 30.2°F-1.0°C 18.0°F-7.8°C 55% Calm Calm 13.7 mph22.0 kmh 30.45 in1031.2 mb 0.00 in0.0 mm 0.00 in0.0 mm 0.00 in0.0 mm
09:13 AM 30.1°F-1.1°C 17.9°F-7.8°C 55% Calm Calm 2.3 mph3.7 kmh 30.45 in1031.2 mb 0.00 in0.0 mm 0.00 in0.0 mm 0.00 in0.0 mm
09:11 AM 29.9°F-1.2°C 17.3°F-8.2°C 54% Calm Calm 13.7 mph22.0 kmh 30.45 in1031.2 mb 0.00 in0.0 mm 0.00 in0.0 mm 0.00 in0.0 mm
09:09 AM 29.7°F-1.3°C 17.1°F-8.3°C 54% 13.0 mph NE20.9 kmh NE 13.7 mph22.0 kmh 30.44 in1030.8 mb 0.00 in0.0 mm 0.00 in0.0 mm 0.00 in0.0 mm
09:07 AM 29.6°F-1.3°C 17.1°F-8.3°C 54% Calm Calm 6.8 mph10.9 kmh 30.45 in1031.2 mb 0.00 in0.0 mm 0.00 in0.0 mm 0.00 in0.0 mm
09:05 AM 29.6°F-1.3°C 17.4°F-8.1°C 55% Calm Calm -- 30.45 in1031.2 mb 0.00 in0.0 mm 0.00 in0.0 mm 0.00 in0.0 mm
09:03 AM 29.4°F-1.4°C 17.3°F-8.2°C 55% Calm Calm 9.1 mph14.6 kmh 30.44 in1030.8 mb 0.00 in0.0 mm 0.00 in0.0 mm 0.00 in0.0 mm
09:01 AM 29.4°F-1.4°C 17.3°F-8.2°C 55% Calm Calm 5.7 mph9.2 kmh 30.45 in1031.2 mb 0.00 in0.0 mm 0.00 in0.0 mm 0.00 in0.0 mm
08:59 AM 29.3°F-1.5°C 16.8°F-8.4°C 54% 4.0 mph ENE6.4 kmh ENE 5.7 mph9.2 kmh 30.44 in1030.8 mb 0.00 in0.0 mm 0.00 in0.0 mm 0.00 in0.0 mm
08:57 AM 29.3°F-1.5°C 16.8°F-8.4°C 54% Calm Calm 5.7 mph9.2 kmh 30.44 in1030.8 mb 0.00 in0.0 mm 0.00 in0.0 mm 0.00 in0.0 mm
08:55 AM 29.2°F-1.6°C 17.1°F-8.3°C 55% Calm Calm -- 30.44 in1030.8 mb 0.00 in0.0 mm 0.00 in0.0 mm 0.00 in0.0 mm
08:53 AM 29.0°F-1.7°C 16.9°F-8.4°C 55% Calm Calm -- 30.44 in1030.8 mb 0.00 in0.0 mm 0.00 in0.0 mm 0.00 in0.0 mm
08:51 AM 28.9°F-1.7°C 17.2°F-8.2°C 56% Calm Calm -- 30.44 in1030.8 mb 0.00 in0.0 mm 0.00 in0.0 mm 0.00 in0.0 mm
08:49 AM 28.8°F-1.8°C 16.7°F-8.5°C 55% Calm Calm 6.8 mph10.9 kmh 30.44 in1030.8 mb 0.00 in0.0 mm 0.00 in0.0 mm 0.00 in0.0 mm
08:47 AM 28.7°F-1.8°C 16.2°F-8.8°C 54% Calm Calm 5.7 mph9.2 kmh 30.44 in1030.8 mb 0.00 in0.0 mm 0.00 in0.0 mm 0.00 in0.0 mm
08:45 AM 28.5°F-1.9°C 16.8°F-8.4°C 56% Calm Calm 5.7 mph9.2 kmh 30.44 in1030.8 mb 0.00 in0.0 mm 0.00 in0.0 mm 0.00 in0.0 mm
08:43 AM 28.4°F-2.0°C 15.9°F-8.9°C 54% Calm Calm 10.3 mph16.6 kmh 30.44 in1030.8 mb 0.00 in0.0 mm 0.00 in0.0 mm 0.00 in0.0 mm
08:41 AM 28.3°F-2.1°C 16.2°F-8.8°C 55% Calm Calm 1.1 mph1.8 kmh 30.44 in1030.8 mb 0.00 in0.0 mm 0.00 in0.0 mm 0.00 in0.0 mm
08:39 AM 28.1°F-2.2°C 16.0°F-8.9°C 55% Calm Calm -- 30.44 in1030.8 mb 0.00 in0.0 mm 0.00 in0.0 mm 0.00 in0.0 mm
08:37 AM 28.0°F-2.2°C 16.3°F-8.7°C 56% Calm Calm 2.3 mph3.7 kmh 30.44 in1030.8 mb 0.00 in0.0 mm 0.00 in0.0 mm 0.00 in0.0 mm
08:35 AM 28.0°F-2.2°C 16.3°F-8.7°C 56% Calm Calm -- 30.44 in1030.8 mb 0.00 in0.0 mm 0.00 in0.0 mm 0.00 in0.0 mm
08:33 AM 27.9°F-2.3°C 16.2°F-8.8°C 56% Calm Calm -- 30.43 in1030.5 mb 0.00 in0.0 mm 0.00 in0.0 mm 0.00 in0.0 mm
08:31 AM 27.8°F-2.3°C 16.1°F-8.8°C 56% Calm Calm -- 30.43 in1030.5 mb 0.00 in0.0 mm 0.00 in0.0 mm 0.00 in0.0 mm
08:29 AM 27.6°F-2.4°C 15.6°F-9.1°C 55% Calm Calm 3.4 mph5.5 kmh 30.43 in1030.5 mb 0.00 in0.0 mm 0.00 in0.0 mm 0.00 in0.0 mm
08:27 AM 27.5°F-2.5°C 15.8°F-9.0°C 56% Calm Calm 1.1 mph1.8 kmh 30.43 in1030.5 mb 0.00 in0.0 mm 0.00 in0.0 mm 0.00 in0.0 mm
08:25 AM 27.5°F-2.5°C 15.8°F-9.0°C 56% Calm Calm -- 30.43 in1030.5 mb 0.00 in0.0 mm 0.00 in0.0 mm 0.00 in0.0 mm
08:23 AM 27.4°F-2.6°C 15.7°F-9.1°C 56% Calm Calm -- 30.43 in1030.5 mb 0.00 in0.0 mm 0.00 in0.0 mm 0.00 in0.0 mm
08:21 AM 27.3°F-2.6°C 15.3°F-9.3°C 55% Calm Calm 1.1 mph1.8 kmh 30.43 in1030.5 mb 0.00 in0.0 mm 0.00 in0.0 mm 0.00 in0.0 mm
08:19 AM 27.2°F-2.7°C 15.6°F-9.1°C 56% Calm Calm -- 30.43 in1030.5 mb 0.00 in0.0 mm 0.00 in0.0 mm 0.00 in0.0 mm
08:17 AM 27.2°F-2.7°C 15.2°F-9.3°C 55% Calm Calm -- 30.43 in1030.5 mb 0.00 in0.0 mm 0.00 in0.0 mm 0.00 in0.0 mm
08:15 AM 27.2°F-2.7°C 15.2°F-9.3°C 55% Calm Calm -- 30.42 in1030.1 mb 0.00 in0.0 mm 0.00 in0.0 mm 0.00 in0.0 mm
08:13 AM 27.1°F-2.7°C 15.1°F-9.4°C 55% Calm Calm -- 30.42 in1030.1 mb 0.00 in0.0 mm 0.00 in0.0 mm 0.00 in0.0 mm
08:11 AM 27.1°F-2.7°C 15.1°F-9.4°C 55% Calm Calm -- 30.42 in1030.1 mb 0.00 in0.0 mm 0.00 in0.0 mm 0.00 in0.0 mm
08:09 AM 27.0°F-2.8°C 15.0°F-9.4°C 55% Calm Calm -- 30.42 in1030.1 mb 0.00 in0.0 mm 0.00 in0.0 mm 0.00 in0.0 mm
08:07 AM 26.9°F-2.8°C 15.3°F-9.3°C 56% Calm Calm -- 30.42 in1030.1 mb 0.00 in0.0 mm 0.00 in0.0 mm 0.00 in0.0 mm
08:05 AM 26.9°F-2.8°C 15.3°F-9.3°C 56% Calm Calm -- 30.42 in1030.1 mb 0.00 in0.0 mm 0.00 in0.0 mm 0.00 in0.0 mm
08:03 AM 26.8°F-2.9°C 14.8°F-9.6°C 55% Calm Calm -- 30.42 in1030.1 mb 0.00 in0.0 mm 0.00 in0.0 mm 0.00 in0.0 mm
08:01 AM 26.8°F-2.9°C 15.2°F-9.3°C 56% Calm Calm -- 30.42 in1030.1 mb 0.00 in0.0 mm 0.00 in0.0 mm 0.00 in0.0 mm
07:59 AM 26.8°F-2.9°C 14.8°F-9.6°C 55% Calm Calm -- 30.42 in1030.1 mb 0.00 in0.0 mm 0.00 in0.0 mm 0.00 in0.0 mm
07:57 AM 26.8°F-2.9°C 15.2°F-9.3°C 56% Calm Calm -- 30.41 in1029.8 mb 0.00 in0.0 mm 0.00 in0.0 mm 0.00 in0.0 mm
07:55 AM 26.8°F-2.9°C 14.8°F-9.6°C 55% Calm Calm -- 30.41 in1029.8 mb 0.00 in0.0 mm 0.00 in0.0 mm 0.00 in0.0 mm
07:53 AM 26.8°F-2.9°C 15.2°F-9.3°C 56% Calm Calm -- 30.41 in1029.8 mb 0.00 in0.0 mm 0.00 in0.0 mm 0.00 in0.0 mm
07:51 AM 26.8°F-2.9°C 14.8°F-9.6°C 55% Calm Calm -- 30.41 in1029.8 mb 0.00 in0.0 mm 0.00 in0.0 mm 0.00 in0.0 mm
07:49 AM 26.8°F-2.9°C 14.8°F-9.6°C 55% Calm Calm -- 30.41 in1029.8 mb 0.00 in0.0 mm 0.00 in0.0 mm 0.00 in0.0 mm
07:47 AM 26.7°F-2.9°C 14.7°F-9.6°C 55% Calm Calm -- 30.41 in1029.8 mb 0.00 in0.0 mm 0.00 in0.0 mm 0.00 in0.0 mm
07:45 AM 26.7°F-2.9°C 14.7°F-9.6°C 55% Calm Calm -- 30.41 in1029.8 mb 0.00 in0.0 mm 0.00 in0.0 mm 0.00 in0.0 mm
07:43 AM 26.7°F-2.9°C 14.7°F-9.6°C 55% Calm Calm -- 30.41 in1029.8 mb 0.00 in0.0 mm 0.00 in0.0 mm 0.00 in0.0 mm
07:41 AM 26.7°F-2.9°C 14.7°F-9.6°C 55% Calm Calm -- 30.41 in1029.8 mb 0.00 in0.0 mm 0.00 in0.0 mm 0.00 in0.0 mm
07:39 AM 26.8°F-2.9°C 15.2°F-9.3°C 56% Calm Calm -- 30.41 in1029.8 mb 0.00 in0.0 mm 0.00 in0.0 mm 0.00 in0.0 mm
07:37 AM 26.8°F-2.9°C 14.8°F-9.6°C 55% Calm Calm -- 30.41 in1029.8 mb 0.00 in0.0 mm 0.00 in0.0 mm 0.00 in0.0 mm
07:35 AM 26.8°F-2.9°C 14.8°F-9.6°C 55% Calm Calm -- 30.41 in1029.8 mb 0.00 in0.0 mm 0.00 in0.0 mm 0.00 in0.0 mm
07:33 AM 26.7°F-2.9°C 14.3°F-9.8°C 54% Calm Calm -- 30.40 in1029.5 mb 0.00 in0.0 mm 0.00 in0.0 mm 0.00 in0.0 mm
07:31 AM 26.7°F-2.9°C 14.7°F-9.6°C 55% Calm Calm -- 30.40 in1029.5 mb 0.00 in0.0 mm 0.00 in0.0 mm 0.00 in0.0 mm
07:29 AM 26.6°F-3.0°C 14.6°F-9.7°C 55% Calm Calm -- 30.41 in1029.8 mb 0.00 in0.0 mm 0.00 in0.0 mm 0.00 in0.0 mm
07:27 AM 26.6°F-3.0°C 14.6°F-9.7°C 55% Calm Calm -- 30.40 in1029.5 mb 0.00 in0.0 mm 0.00 in0.0 mm 0.00 in0.0 mm
07:25 AM 26.7°F-2.9°C 14.7°F-9.6°C 55% Calm Calm -- 30.40 in1029.5 mb 0.00 in0.0 mm 0.00 in0.0 mm 0.00 in0.0 mm
07:23 AM 26.7°F-2.9°C 14.7°F-9.6°C 55% Calm Calm -- 30.40 in1029.5 mb 0.00 in0.0 mm 0.00 in0.0 mm 0.00 in0.0 mm
07:21 AM 26.7°F-2.9°C 14.7°F-9.6°C 55% Calm Calm -- 30.40 in1029.5 mb 0.00 in0.0 mm 0.00 in0.0 mm 0.00 in0.0 mm
07:19 AM 26.7°F-2.9°C 14.7°F-9.6°C 55% Calm Calm -- 30.40 in1029.5 mb 0.00 in0.0 mm 0.00 in0.0 mm 0.00 in0.0 mm
07:17 AM 26.7°F-2.9°C 14.7°F-9.6°C 55% Calm Calm -- 30.40 in1029.5 mb 0.00 in0.0 mm 0.00 in0.0 mm 0.00 in0.0 mm
07:15 AM 26.7°F-2.9°C 14.7°F-9.6°C 55% Calm Calm -- 30.40 in1029.5 mb 0.00 in0.0 mm 0.00 in0.0 mm 0.00 in0.0 mm
07:13 AM 26.6°F-3.0°C 14.2°F-9.9°C 54% Calm Calm -- 30.39 in1029.1 mb 0.00 in0.0 mm 0.00 in0.0 mm 0.00 in0.0 mm
07:11 AM 26.6°F-3.0°C 14.6°F-9.7°C 55% Calm Calm -- 30.39 in1029.1 mb 0.00 in0.0 mm 0.00 in0.0 mm 0.00 in0.0 mm
07:09 AM 26.5°F-3.1°C 14.5°F-9.7°C 55% Calm Calm -- 30.39 in1029.1 mb 0.00 in0.0 mm 0.00 in0.0 mm 0.00 in0.0 mm
07:07 AM 26.6°F-3.0°C 14.6°F-9.7°C 55% Calm Calm -- 30.39 in1029.1 mb 0.00 in0.0 mm 0.00 in0.0 mm 0.00 in0.0 mm
07:05 AM 26.6°F-3.0°C 14.6°F-9.7°C 55% Calm Calm -- 30.39 in1029.1 mb 0.00 in0.0 mm 0.00 in0.0 mm 0.00 in0.0 mm
07:03 AM 26.6°F-3.0°C 14.6°F-9.7°C 55% Calm Calm -- 30.39 in1029.1 mb 0.00 in0.0 mm 0.00 in0.0 mm 0.00 in0.0 mm
07:01 AM 26.6°F-3.0°C 14.6°F-9.7°C 55% Calm Calm -- 30.39 in1029.1 mb 0.00 in0.0 mm 0.00 in0.0 mm 0.00 in0.0 mm
06:59 AM 26.7°F-2.9°C 14.3°F-9.8°C 54% Calm Calm -- 30.39 in1029.1 mb 0.00 in0.0 mm 0.00 in0.0 mm 0.00 in0.0 mm
06:57 AM 26.7°F-2.9°C 14.3°F-9.8°C 54% Calm Calm -- 30.39 in1029.1 mb 0.00 in0.0 mm 0.00 in0.0 mm 0.00 in0.0 mm
06:55 AM 26.7°F-2.9°C 14.3°F-9.8°C 54% Calm Calm -- 30.39 in1029.1 mb 0.00 in0.0 mm 0.00 in0.0 mm 0.00 in0.0 mm
06:53 AM 26.8°F-2.9°C 14.0°F-10.0°C 53% Calm Calm -- 30.39 in1029.1 mb 0.00 in0.0 mm 0.00 in0.0 mm 0.00 in0.0 mm
06:51 AM 26.8°F-2.9°C 14.4°F-9.8°C 54% Calm Calm -- 30.39 in1029.1 mb 0.00 in0.0 mm 0.00 in0.0 mm 0.00 in0.0 mm
06:49 AM 26.9°F-2.8°C 14.1°F-9.9°C 53% Calm Calm -- 30.39 in1029.1 mb 0.00 in0.0 mm 0.00 in0.0 mm 0.00 in0.0 mm
06:47 AM 26.9°F-2.8°C 13.7°F-10.2°C 52% Calm Calm -- 30.38 in1028.8 mb 0.00 in0.0 mm 0.00 in0.0 mm 0.00 in0.0 mm
06:45 AM 26.9°F-2.8°C 14.1°F-9.9°C 53% Calm Calm -- 30.38 in1028.8 mb 0.00 in0.0 mm 0.00 in0.0 mm 0.00 in0.0 mm
06:43 AM 26.9°F-2.8°C 13.7°F-10.2°C 52% Calm Calm -- 30.38 in1028.8 mb 0.00 in0.0 mm 0.00 in0.0 mm 0.00 in0.0 mm
06:41 AM 27.0°F-2.8°C 14.2°F-9.9°C 53% Calm Calm -- 30.38 in1028.8 mb 0.00 in0.0 mm 0.00 in0.0 mm 0.00 in0.0 mm
06:39 AM 27.1°F-2.7°C 14.3°F-9.8°C 53% Calm Calm -- 30.38 in1028.8 mb 0.00 in0.0 mm 0.00 in0.0 mm 0.00 in0.0 mm
06:37 AM 27.2°F-2.7°C 14.0°F-10.0°C 52% Calm Calm -- 30.38 in1028.8 mb 0.00 in0.0 mm 0.00 in0.0 mm 0.00 in0.0 mm
06:35 AM 27.2°F-2.7°C 13.6°F-10.2°C 51% Calm Calm -- 30.38 in1028.8 mb 0.00 in0.0 mm 0.00 in0.0 mm 0.00 in0.0 mm
06:33 AM 27.2°F-2.7°C 13.6°F-10.2°C 51% Calm Calm -- 30.38 in1028.8 mb 0.00 in0.0 mm 0.00 in0.0 mm 0.00 in0.0 mm
06:31 AM 27.3°F-2.6°C 14.1°F-9.9°C 52% Calm Calm -- 30.38 in1028.8 mb 0.00 in0.0 mm 0.00 in0.0 mm 0.00 in0.0 mm
06:29 AM 27.3°F-2.6°C 13.7°F-10.2°C 51% Calm Calm 4.6 mph7.4 kmh 30.38 in1028.8 mb 0.00 in0.0 mm 0.00 in0.0 mm 0.00 in0.0 mm
06:27 AM 27.2°F-2.7°C 14.4°F-9.8°C 53% Calm Calm -- 30.38 in1028.8 mb 0.00 in0.0 mm 0.00 in0.0 mm 0.00 in0.0 mm
06:25 AM 27.3°F-2.6°C 13.7°F-10.2°C 51% Calm Calm -- 30.38 in1028.8 mb 0.00 in0.0 mm 0.00 in0.0 mm 0.00 in0.0 mm
06:23 AM 27.3°F-2.6°C 13.7°F-10.2°C 51% Calm Calm -- 30.38 in1028.8 mb 0.00 in0.0 mm 0.00 in0.0 mm 0.00 in0.0 mm
06:21 AM 27.4°F-2.6°C 13.4°F-10.3°C 50% Calm Calm 3.4 mph5.5 kmh 30.38 in1028.8 mb 0.00 in0.0 mm 0.00 in0.0 mm 0.00 in0.0 mm
06:19 AM 27.4°F-2.6°C 13.8°F-10.1°C 51% Calm Calm -- 30.38 in1028.8 mb 0.00 in0.0 mm 0.00 in0.0 mm 0.00 in0.0 mm
06:17 AM 27.5°F-2.5°C 13.9°F-10.1°C 51% Calm Calm -- 30.38 in1028.8 mb 0.00 in0.0 mm 0.00 in0.0 mm 0.00 in0.0 mm
06:15 AM 27.5°F-2.5°C 13.5°F-10.3°C 50% Calm Calm 4.6 mph7.4 kmh 30.37 in1028.4 mb 0.00 in0.0 mm 0.00 in0.0 mm 0.00 in0.0 mm
06:13 AM 27.5°F-2.5°C 13.5°F-10.3°C 50% Calm Calm -- 30.37 in1028.4 mb 0.00 in0.0 mm 0.00 in0.0 mm 0.00 in0.0 mm
06:11 AM 27.5°F-2.5°C 13.1°F-10.5°C 49% Calm Calm -- 30.37 in1028.4 mb 0.00 in0.0 mm 0.00 in0.0 mm 0.00 in0.0 mm
06:09 AM 27.5°F-2.5°C 13.1°F-10.5°C 49% Calm Calm -- 30.37 in1028.4 mb 0.00 in0.0 mm 0.00 in0.0 mm 0.00 in0.0 mm
06:07 AM 27.5°F-2.5°C 13.1°F-10.5°C 49% Calm Calm -- 30.37 in1028.4 mb 0.00 in0.0 mm 0.00 in0.0 mm 0.00 in0.0 mm
06:05 AM 27.5°F-2.5°C 13.1°F-10.5°C 49% Calm Calm -- 30.37 in1028.4 mb 0.00 in0.0 mm 0.00 in0.0 mm 0.00 in0.0 mm
06:03 AM 27.4°F-2.6°C 13.0°F-10.6°C 49% Calm Calm -- 30.37 in1028.4 mb 0.00 in0.0 mm 0.00 in0.0 mm 0.00 in0.0 mm
06:01 AM 27.5°F-2.5°C 13.1°F-10.5°C 49% Calm Calm -- 30.37 in1028.4 mb 0.00 in0.0 mm 0.00 in0.0 mm 0.00 in0.0 mm
05:59 AM 27.5°F-2.5°C 13.1°F-10.5°C 49% Calm Calm 1.1 mph1.8 kmh 30.37 in1028.4 mb 0.00 in0.0 mm 0.00 in0.0 mm 0.00 in0.0 mm
05:57 AM 27.5°F-2.5°C 13.1°F-10.5°C 49% Calm Calm 1.1 mph1.8 kmh 30.37 in1028.4 mb 0.00 in0.0 mm 0.00 in0.0 mm 0.00 in0.0 mm
05:55 AM 27.5°F-2.5°C 13.1°F-10.5°C 49% Calm Calm -- 30.36 in1028.1 mb 0.00 in0.0 mm 0.00 in0.0 mm 0.00 in0.0 mm
05:53 AM 27.5°F-2.5°C 13.1°F-10.5°C 49% Calm Calm -- 30.36 in1028.1 mb 0.00 in0.0 mm 0.00 in0.0 mm 0.00 in0.0 mm
05:51 AM 27.6°F-2.4°C 14.0°F-10.0°C 51% Calm Calm -- 30.36 in1028.1 mb 0.00 in0.0 mm 0.00 in0.0 mm 0.00 in0.0 mm
05:49 AM 27.6°F-2.4°C 13.2°F-10.4°C 49% Calm Calm -- 30.36 in1028.1 mb 0.00 in0.0 mm 0.00 in0.0 mm 0.00 in0.0 mm
05:47 AM 27.6°F-2.4°C 12.7°F-10.7°C 48% Calm Calm -- 30.36 in1028.1 mb 0.00 in0.0 mm 0.00 in0.0 mm 0.00 in0.0 mm
05:45 AM 27.7°F-2.4°C 12.8°F-10.7°C 48% Calm Calm -- 30.36 in1028.1 mb 0.00 in0.0 mm 0.00 in0.0 mm 0.00 in0.0 mm
05:43 AM 27.6°F-2.4°C 12.7°F-10.7°C 48% Calm Calm -- 30.36 in1028.1 mb 0.00 in0.0 mm 0.00 in0.0 mm 0.00 in0.0 mm
05:41 AM 27.6°F-2.4°C 12.7°F-10.7°C 48% Calm Calm -- 30.36 in1028.1 mb 0.00 in0.0 mm 0.00 in0.0 mm 0.00 in0.0 mm
05:39 AM 27.7°F-2.4°C 12.8°F-10.7°C 48% Calm Calm -- 30.36 in1028.1 mb 0.00 in0.0 mm 0.00 in0.0 mm 0.00 in0.0 mm
05:37 AM 27.8°F-2.3°C 13.3°F-10.4°C 49% Calm Calm -- 30.36 in1028.1 mb 0.00 in0.0 mm 0.00 in0.0 mm 0.00 in0.0 mm
05:35 AM 27.9°F-2.3°C 13.0°F-10.6°C 48% Calm Calm -- 30.35 in1027.8 mb 0.00 in0.0 mm 0.00 in0.0 mm 0.00 in0.0 mm
05:33 AM 27.8°F-2.3°C 12.1°F-11.1°C 46% Calm Calm -- 30.35 in1027.8 mb 0.00 in0.0 mm 0.00 in0.0 mm 0.00 in0.0 mm
05:31 AM 27.7°F-2.4°C 12.4°F-10.9°C 47% Calm Calm 2.3 mph3.7 kmh 30.35 in1027.8 mb 0.00 in0.0 mm 0.00 in0.0 mm 0.00 in0.0 mm
05:29 AM 27.7°F-2.4°C 12.8°F-10.7°C 48% Calm Calm -- 30.35 in1027.8 mb 0.00 in0.0 mm 0.00 in0.0 mm 0.00 in0.0 mm
05:27 AM 27.7°F-2.4°C 12.4°F-10.9°C 47% Calm Calm -- 30.35 in1027.8 mb 0.00 in0.0 mm 0.00 in0.0 mm 0.00 in0.0 mm
05:25 AM 27.7°F-2.4°C 12.0°F-11.1°C 46% Calm Calm -- 30.35 in1027.8 mb 0.00 in0.0 mm 0.00 in0.0 mm 0.00 in0.0 mm
05:23 AM 27.8°F-2.3°C 12.5°F-10.8°C 47% Calm Calm -- 30.35 in1027.8 mb 0.00 in0.0 mm 0.00 in0.0 mm 0.00 in0.0 mm
05:21 AM 27.8°F-2.3°C 12.5°F-10.8°C 47% Calm Calm -- 30.35 in1027.8 mb 0.00 in0.0 mm 0.00 in0.0 mm 0.00 in0.0 mm
05:19 AM 27.8°F-2.3°C 12.1°F-11.1°C 46% Calm Calm -- 30.35 in1027.8 mb 0.00 in0.0 mm 0.00 in0.0 mm 0.00 in0.0 mm
05:17 AM 27.9°F-2.3°C 12.1°F-11.1°C 46% Calm Calm -- 30.35 in1027.8 mb 0.00 in0.0 mm 0.00 in0.0 mm 0.00 in0.0 mm
05:15 AM 27.8°F-2.3°C 12.1°F-11.1°C 46% Calm Calm -- 30.34 in1027.4 mb 0.00 in0.0 mm 0.00 in0.0 mm 0.00 in0.0 mm
05:13 AM 27.8°F-2.3°C 12.1°F-11.1°C 46% Calm Calm -- 30.34 in1027.4 mb 0.00 in0.0 mm 0.00 in0.0 mm 0.00 in0.0 mm
05:11 AM 27.9°F-2.3°C 12.1°F-11.1°C 46% Calm Calm -- 30.34 in1027.4 mb 0.00 in0.0 mm 0.00 in0.0 mm 0.00 in0.0 mm
05:09 AM 27.9°F-2.3°C 11.2°F-11.6°C 44% Calm Calm -- 30.34 in1027.4 mb 0.00 in0.0 mm 0.00 in0.0 mm 0.00 in0.0 mm
05:07 AM 27.8°F-2.3°C 11.6°F-11.3°C 45% Calm Calm -- 30.34 in1027.4 mb 0.00 in0.0 mm 0.00 in0.0 mm 0.00 in0.0 mm
05:05 AM 27.8°F-2.3°C 11.6°F-11.3°C 45% Calm Calm -- 30.34 in1027.4 mb 0.00 in0.0 mm 0.00 in0.0 mm 0.00 in0.0 mm
05:03 AM 27.8°F-2.3°C 12.1°F-11.1°C 46% Calm Calm -- 30.34 in1027.4 mb 0.00 in0.0 mm 0.00 in0.0 mm 0.00 in0.0 mm
05:01 AM 27.8°F-2.3°C 11.2°F-11.6°C 44% Calm Calm -- 30.34 in1027.4 mb 0.00 in0.0 mm 0.00 in0.0 mm 0.00 in0.0 mm
04:59 AM 27.6°F-2.4°C 11.4°F-11.4°C 45% Calm Calm -- 30.34 in1027.4 mb 0.00 in0.0 mm 0.00 in0.0 mm 0.00 in0.0 mm
04:57 AM 27.6°F-2.4°C 11.4°F-11.4°C 45% Calm Calm -- 30.34 in1027.4 mb 0.00 in0.0 mm 0.00 in0.0 mm 0.00 in0.0 mm
04:55 AM 27.6°F-2.4°C 11.4°F-11.4°C 45% Calm Calm -- 30.34 in1027.4 mb 0.00 in0.0 mm 0.00 in0.0 mm 0.00 in0.0 mm
04:53 AM 27.6°F-2.4°C 11.0°F-11.7°C 44% Calm Calm -- 30.34 in1027.4 mb 0.00 in0.0 mm 0.00 in0.0 mm 0.00 in0.0 mm
04:51 AM 27.6°F-2.4°C 11.9°F-11.2°C 46% Calm Calm -- 30.34 in1027.4 mb 0.00 in0.0 mm 0.00 in0.0 mm 0.00 in0.0 mm
04:49 AM 27.7°F-2.4°C 12.0°F-11.1°C 46% Calm Calm -- 30.34 in1027.4 mb 0.00 in0.0 mm 0.00 in0.0 mm 0.00 in0.0 mm
04:47 AM 27.6°F-2.4°C 11.0°F-11.7°C 44% Calm Calm -- 30.34 in1027.4 mb 0.00 in0.0 mm 0.00 in0.0 mm 0.00 in0.0 mm
04:45 AM 27.7°F-2.4°C 12.0°F-11.1°C 46% Calm Calm -- 30.34 in1027.4 mb 0.00 in0.0 mm 0.00 in0.0 mm 0.00 in0.0 mm
04:43 AM 27.7°F-2.4°C 12.0°F-11.1°C 46% Calm Calm -- 30.34 in1027.4 mb 0.00 in0.0 mm 0.00 in0.0 mm 0.00 in0.0 mm
04:41 AM 27.8°F-2.3°C 12.1°F-11.1°C 46% Calm Calm -- 30.33 in1027.1 mb 0.00 in0.0 mm 0.00 in0.0 mm 0.00 in0.0 mm
04:39 AM 27.8°F-2.3°C 11.6°F-11.3°C 45% Calm Calm -- 30.33 in1027.1 mb 0.00 in0.0 mm 0.00 in0.0 mm 0.00 in0.0 mm
04:37 AM 27.9°F-2.3°C 12.1°F-11.1°C 46% Calm Calm -- 30.33 in1027.1 mb 0.00 in0.0 mm 0.00 in0.0 mm 0.00 in0.0 mm
04:35 AM 27.9°F-2.3°C 12.1°F-11.1°C 46% Calm Calm -- 30.33 in1027.1 mb 0.00 in0.0 mm 0.00 in0.0 mm 0.00 in0.0 mm
04:33 AM 28.0°F-2.2°C 11.8°F-11.2°C 45% Calm Calm -- 30.33 in1027.1 mb 0.00 in0.0 mm 0.00 in0.0 mm 0.00 in0.0 mm
04:31 AM 28.0°F-2.2°C 11.3°F-11.5°C 44% Calm Calm -- 30.33 in1027.1 mb 0.00 in0.0 mm 0.00 in0.0 mm 0.00 in0.0 mm
04:29 AM 28.0°F-2.2°C 11.3°F-11.5°C 44% Calm Calm -- 30.33 in1027.1 mb 0.00 in0.0 mm 0.00 in0.0 mm 0.00 in0.0 mm
04:27 AM 28.1°F-2.2°C 11.9°F-11.2°C 45% Calm Calm -- 30.33 in1027.1 mb 0.00 in0.0 mm 0.00 in0.0 mm 0.00 in0.0 mm
04:25 AM 28.1°F-2.2°C 11.4°F-11.4°C 44% Calm Calm -- 30.33 in1027.1 mb 0.00 in0.0 mm 0.00 in0.0 mm 0.00 in0.0 mm
04:23 AM 28.1°F-2.2°C 12.3°F-10.9°C 46% Calm Calm -- 30.33 in1027.1 mb 0.00 in0.0 mm 0.00 in0.0 mm 0.00 in0.0 mm
04:21 AM 28.2°F-2.1°C 12.4°F-10.9°C 46% Calm Calm -- 30.33 in1027.1 mb 0.00 in0.0 mm 0.00 in0.0 mm 0.00 in0.0 mm
04:19 AM 28.2°F-2.1°C 12.0°F-11.1°C 45% Calm Calm -- 30.33 in1027.1 mb 0.00 in0.0 mm 0.00 in0.0 mm 0.00 in0.0 mm
04:17 AM 28.3°F-2.1°C 11.6°F-11.3°C 44% Calm Calm -- 30.33 in1027.1 mb 0.00 in0.0 mm 0.00 in0.0 mm 0.00 in0.0 mm
04:15 AM 28.3°F-2.1°C 12.1°F-11.1°C 45% Calm Calm -- 30.32 in1026.8 mb 0.00 in0.0 mm 0.00 in0.0 mm 0.00 in0.0 mm
04:13 AM 28.2°F-2.1°C 11.5°F-11.4°C 44% Calm Calm -- 30.32 in1026.8 mb 0.00 in0.0 mm 0.00 in0.0 mm 0.00 in0.0 mm
04:11 AM 28.2°F-2.1°C 12.0°F-11.1°C 45% Calm Calm -- 30.32 in1026.8 mb 0.00 in0.0 mm 0.00 in0.0 mm 0.00 in0.0 mm
04:09 AM 28.3°F-2.1°C 12.5°F-10.8°C 46% Calm Calm -- 30.32 in1026.8 mb 0.00 in0.0 mm 0.00 in0.0 mm 0.00 in0.0 mm
04:07 AM 28.3°F-2.1°C 12.1°F-11.1°C 45% Calm Calm -- 30.32 in1026.8 mb 0.00 in0.0 mm 0.00 in0.0 mm 0.00 in0.0 mm
04:05 AM 28.4°F-2.0°C 12.6°F-10.8°C 46% Calm Calm -- 30.32 in1026.8 mb 0.00 in0.0 mm 0.00 in0.0 mm 0.00 in0.0 mm
04:03 AM 28.3°F-2.1°C 11.6°F-11.3°C 44% Calm Calm 9.1 mph14.6 kmh 30.32 in1026.8 mb 0.00 in0.0 mm 0.00 in0.0 mm 0.00 in0.0 mm
04:01 AM 28.3°F-2.1°C 12.5°F-10.8°C 46% Calm Calm -- 30.32 in1026.8 mb 0.00 in0.0 mm 0.00 in0.0 mm 0.00 in0.0 mm
03:59 AM 28.4°F-2.0°C 12.6°F-10.8°C 46% Calm Calm -- 30.32 in1026.8 mb 0.00 in0.0 mm 0.00 in0.0 mm 0.00 in0.0 mm
03:57 AM 28.4°F-2.0°C 12.6°F-10.8°C 46% Calm Calm -- 30.32 in1026.8 mb 0.00 in0.0 mm 0.00 in0.0 mm 0.00 in0.0 mm
03:55 AM 28.4°F-2.0°C 12.2°F-11.0°C 45% Calm Calm -- 30.32 in1026.8 mb 0.00 in0.0 mm 0.00 in0.0 mm 0.00 in0.0 mm
03:53 AM 28.3°F-2.1°C 12.5°F-10.8°C 46% Calm Calm -- 30.32 in1026.8 mb 0.00 in0.0 mm 0.00 in0.0 mm 0.00 in0.0 mm
03:51 AM 28.4°F-2.0°C 13.0°F-10.6°C 47% Calm Calm -- 30.32 in1026.8 mb 0.00 in0.0 mm 0.00 in0.0 mm 0.00 in0.0 mm
03:49 AM 28.5°F-1.9°C 13.1°F-10.5°C 47% Calm Calm -- 30.32 in1026.8 mb 0.00 in0.0 mm 0.00 in0.0 mm 0.00 in0.0 mm
03:47 AM 28.5°F-1.9°C 13.1°F-10.5°C 47% Calm Calm -- 30.32 in1026.8 mb 0.00 in0.0 mm 0.00 in0.0 mm 0.00 in0.0 mm
03:45 AM 28.6°F-1.9°C 12.8°F-10.7°C 46% Calm Calm -- 30.32 in1026.8 mb 0.00 in0.0 mm 0.00 in0.0 mm 0.00 in0.0 mm
03:43 AM 28.6°F-1.9°C 12.8°F-10.7°C 46% Calm Calm -- 30.32 in1026.8 mb 0.00 in0.0 mm 0.00 in0.0 mm 0.00 in0.0 mm
03:41 AM 28.6°F-1.9°C 13.2°F-10.4°C 47% Calm Calm -- 30.32 in1026.8 mb 0.00 in0.0 mm 0.00 in0.0 mm 0.00 in0.0 mm
03:39 AM 28.6°F-1.9°C 13.2°F-10.4°C 47% Calm Calm -- 30.32 in1026.8 mb 0.00 in0.0 mm 0.00 in0.0 mm 0.00 in0.0 mm
03:37 AM 28.7°F-1.8°C 12.9°F-10.6°C 46% Calm Calm -- 30.32 in1026.8 mb 0.00 in0.0 mm 0.00 in0.0 mm 0.00 in0.0 mm
03:35 AM 28.7°F-1.8°C 13.8°F-10.1°C 48% Calm Calm 1.1 mph1.8 kmh 30.32 in1026.8 mb 0.00 in0.0 mm 0.00 in0.0 mm 0.00 in0.0 mm
03:33 AM 28.7°F-1.8°C 13.3°F-10.4°C 47% Calm Calm 1.1 mph1.8 kmh 30.32 in1026.8 mb 0.00 in0.0 mm 0.00 in0.0 mm 0.00 in0.0 mm
03:31 AM 28.7°F-1.8°C 13.3°F-10.4°C 47% Calm Calm -- 30.32 in1026.8 mb 0.00 in0.0 mm 0.00 in0.0 mm 0.00 in0.0 mm
03:29 AM 28.7°F-1.8°C 13.3°F-10.4°C 47% Calm Calm -- 30.32 in1026.8 mb 0.00 in0.0 mm 0.00 in0.0 mm 0.00 in0.0 mm
03:27 AM 28.8°F-1.8°C 13.4°F-10.3°C 47% Calm Calm 4.6 mph7.4 kmh 30.32 in1026.8 mb 0.00 in0.0 mm 0.00 in0.0 mm 0.00 in0.0 mm
03:25 AM 28.7°F-1.8°C 13.8°F-10.1°C 48% Calm Calm -- 30.32 in1026.8 mb 0.00 in0.0 mm 0.00 in0.0 mm 0.00 in0.0 mm
03:23 AM 28.7°F-1.8°C 13.8°F-10.1°C 48% Calm Calm 1.1 mph1.8 kmh 30.32 in1026.8 mb 0.00 in0.0 mm 0.00 in0.0 mm 0.00 in0.0 mm
03:21 AM 28.8°F-1.8°C 13.9°F-10.1°C 48% Calm Calm -- 30.32 in1026.8 mb 0.00 in0.0 mm 0.00 in0.0 mm 0.00 in0.0 mm
03:19 AM 28.7°F-1.8°C 13.8°F-10.1°C 48% Calm Calm 1.1 mph1.8 kmh 30.31 in1026.4 mb 0.00 in0.0 mm 0.00 in0.0 mm 0.00 in0.0 mm
03:17 AM 28.8°F-1.8°C 14.7°F-9.6°C 50% Calm Calm -- 30.31 in1026.4 mb 0.00 in0.0 mm 0.00 in0.0 mm 0.00 in0.0 mm
03:15 AM 28.8°F-1.8°C 14.3°F-9.8°C 49% Calm Calm -- 30.31 in1026.4 mb 0.00 in0.0 mm 0.00 in0.0 mm 0.00 in0.0 mm
03:13 AM 28.8°F-1.8°C 14.3°F-9.8°C 49% Calm Calm -- 30.31 in1026.4 mb 0.00 in0.0 mm 0.00 in0.0 mm 0.00 in0.0 mm
03:11 AM 28.8°F-1.8°C 14.3°F-9.8°C 49% Calm Calm -- 30.31 in1026.4 mb 0.00 in0.0 mm 0.00 in0.0 mm 0.00 in0.0 mm
03:09 AM 28.8°F-1.8°C 14.3°F-9.8°C 49% Calm Calm -- 30.31 in1026.4 mb 0.00 in0.0 mm 0.00 in0.0 mm 0.00 in0.0 mm
03:07 AM 29.0°F-1.7°C 14.9°F-9.5°C 50% Calm Calm -- 30.31 in1026.4 mb 0.00 in0.0 mm 0.00 in0.0 mm 0.00 in0.0 mm
03:05 AM 29.0°F-1.7°C 14.9°F-9.5°C 50% Calm Calm -- 30.31 in1026.4 mb 0.00 in0.0 mm 0.00 in0.0 mm 0.00 in0.0 mm
03:03 AM 29.1°F-1.6°C 14.6°F-9.7°C 49% Calm Calm 2.3 mph3.7 kmh 30.31 in1026.4 mb 0.00 in0.0 mm 0.00 in0.0 mm 0.00 in0.0 mm
03:01 AM 29.1°F-1.6°C 15.0°F-9.4°C 50% Calm Calm 1.1 mph1.8 kmh 30.31 in1026.4 mb 0.00 in0.0 mm 0.00 in0.0 mm 0.00 in0.0 mm
02:59 AM 29.1°F-1.6°C 15.0°F-9.4°C 50% Calm Calm -- 30.31 in1026.4 mb 0.00 in0.0 mm 0.00 in0.0 mm 0.00 in0.0 mm
02:57 AM 29.1°F-1.6°C 15.0°F-9.4°C 50% Calm Calm 10.3 mph16.6 kmh 30.31 in1026.4 mb 0.00 in0.0 mm 0.00 in0.0 mm 0.00 in0.0 mm
02:55 AM 29.1°F-1.6°C 15.4°F-9.2°C 51% Calm Calm 1.1 mph1.8 kmh 30.31 in1026.4 mb 0.00 in0.0 mm 0.00 in0.0 mm 0.00 in0.0 mm
02:53 AM 29.1°F-1.6°C 15.4°F-9.2°C 51% Calm Calm -- 30.31 in1026.4 mb 0.00 in0.0 mm 0.00 in0.0 mm 0.00 in0.0 mm
02:51 AM 29.1°F-1.6°C 15.4°F-9.2°C 51% Calm Calm -- 30.31 in1026.4 mb 0.00 in0.0 mm 0.00 in0.0 mm 0.00 in0.0 mm
02:49 AM 29.1°F-1.6°C 15.4°F-9.2°C 51% Calm Calm -- 30.31 in1026.4 mb 0.00 in0.0 mm 0.00 in0.0 mm 0.00 in0.0 mm
02:47 AM 29.2°F-1.6°C 15.9°F-8.9°C 52% Calm Calm 3.4 mph5.5 kmh 30.31 in1026.4 mb 0.00 in0.0 mm 0.00 in0.0 mm 0.00 in0.0 mm
02:45 AM 29.2°F-1.6°C 16.3°F-8.7°C 53% Calm Calm -- 30.31 in1026.4 mb 0.00 in0.0 mm 0.00 in0.0 mm 0.00 in0.0 mm
02:43 AM 29.2°F-1.6°C 15.9°F-8.9°C 52% Calm Calm 8.0 mph12.9 kmh 30.31 in1026.4 mb 0.00 in0.0 mm 0.00 in0.0 mm 0.00 in0.0 mm
02:41 AM 29.3°F-1.5°C 16.8°F-8.4°C 54% Calm Calm 8.0 mph12.9 kmh 30.31 in1026.4 mb 0.00 in0.0 mm 0.00 in0.0 mm 0.00 in0.0 mm
02:39 AM 29.3°F-1.5°C 16.4°F-8.7°C 53% 1.0 mph NNE1.6 kmh NNE 8.0 mph12.9 kmh 30.31 in1026.4 mb 0.00 in0.0 mm 0.00 in0.0 mm 0.00 in0.0 mm
02:37 AM 29.2°F-1.6°C 16.7°F-8.5°C 54% Calm Calm 8.0 mph12.9 kmh 30.31 in1026.4 mb 0.00 in0.0 mm 0.00 in0.0 mm 0.00 in0.0 mm
02:35 AM 29.3°F-1.5°C 16.8°F-8.4°C 54% Calm Calm -- 30.31 in1026.4 mb 0.00 in0.0 mm 0.00 in0.0 mm 0.00 in0.0 mm
02:33 AM 29.2°F-1.6°C 16.7°F-8.5°C 54% Calm Calm -- 30.31 in1026.4 mb 0.00 in0.0 mm 0.00 in0.0 mm 0.00 in0.0 mm
02:31 AM 29.2°F-1.6°C 17.4°F-8.1°C 56% Calm Calm -- 30.31 in1026.4 mb 0.00 in0.0 mm 0.00 in0.0 mm 0.00 in0.0 mm
02:29 AM 29.3°F-1.5°C 17.5°F-8.1°C 56% Calm Calm -- 30.31 in1026.4 mb 0.00 in0.0 mm 0.00 in0.0 mm 0.00 in0.0 mm
02:27 AM 29.3°F-1.5°C 17.5°F-8.1°C 56% Calm Calm -- 30.31 in1026.4 mb 0.00 in0.0 mm 0.00 in0.0 mm 0.00 in0.0 mm
02:25 AM 29.4°F-1.4°C 17.6°F-8.0°C 56% Calm Calm -- 30.31 in1026.4 mb 0.00 in0.0 mm 0.00 in0.0 mm 0.00 in0.0 mm
02:23 AM 29.4°F-1.4°C 17.6°F-8.0°C 56% Calm Calm -- 30.31 in1026.4 mb 0.00 in0.0 mm 0.00 in0.0 mm 0.00 in0.0 mm
02:21 AM 29.4°F-1.4°C 17.6°F-8.0°C 56% Calm Calm -- 30.31 in1026.4 mb 0.00 in0.0 mm 0.00 in0.0 mm 0.00 in0.0 mm
02:19 AM 29.4°F-1.4°C 18.0°F-7.8°C 57% Calm Calm 1.1 mph1.8 kmh 30.31 in1026.4 mb 0.00 in0.0 mm 0.00 in0.0 mm 0.00 in0.0 mm
02:17 AM 29.4°F-1.4°C 17.6°F-8.0°C 56% Calm Calm 2.3 mph3.7 kmh 30.31 in1026.4 mb 0.00 in0.0 mm 0.00 in0.0 mm 0.00 in0.0 mm
02:15 AM 29.4°F-1.4°C 18.0°F-7.8°C 57% Calm Calm -- 30.31 in1026.4 mb 0.00 in0.0 mm 0.00 in0.0 mm 0.00 in0.0 mm
02:13 AM 29.4°F-1.4°C 18.0°F-7.8°C 57% Calm Calm -- 30.31 in1026.4 mb 0.00 in0.0 mm 0.00 in0.0 mm 0.00 in0.0 mm
02:11 AM 29.4°F-1.4°C 18.8°F-7.3°C 59% Calm Calm -- 30.31 in1026.4 mb 0.00 in0.0 mm 0.00 in0.0 mm 0.00 in0.0 mm
02:09 AM 29.4°F-1.4°C 18.0°F-7.8°C 57% Calm Calm 5.7 mph9.2 kmh 30.31 in1026.4 mb 0.00 in0.0 mm 0.00 in0.0 mm 0.00 in0.0 mm
02:07 AM 29.5°F-1.4°C 18.1°F-7.7°C 57% Calm Calm -- 30.31 in1026.4 mb 0.00 in0.0 mm 0.00 in0.0 mm 0.00 in0.0 mm
02:05 AM 29.5°F-1.4°C 18.5°F-7.5°C 58% Calm Calm -- 30.31 in1026.4 mb 0.00 in0.0 mm 0.00 in0.0 mm 0.00 in0.0 mm
02:03 AM 29.5°F-1.4°C 18.5°F-7.5°C 58% Calm Calm -- 30.31 in1026.4 mb 0.00 in0.0 mm 0.00 in0.0 mm 0.00 in0.0 mm
02:01 AM 29.6°F-1.3°C 18.9°F-7.3°C 59% Calm Calm -- 30.31 in1026.4 mb 0.00 in0.0 mm 0.00 in0.0 mm 0.00 in0.0 mm
01:59 AM 29.6°F-1.3°C 18.9°F-7.3°C 59% Calm Calm -- 30.31 in1026.4 mb 0.00 in0.0 mm 0.00 in0.0 mm 0.00 in0.0 mm
01:57 AM 29.6°F-1.3°C 18.9°F-7.3°C 59% Calm Calm -- 30.31 in1026.4 mb 0.00 in0.0 mm 0.00 in0.0 mm 0.00 in0.0 mm
01:55 AM 29.7°F-1.3°C 19.0°F-7.2°C 59% Calm Calm -- 30.31 in1026.4 mb 0.00 in0.0 mm 0.00 in0.0 mm 0.00 in0.0 mm
01:53 AM 29.7°F-1.3°C 19.0°F-7.2°C 59% Calm Calm 11.4 mph18.3 kmh 30.31 in1026.4 mb 0.00 in0.0 mm 0.00 in0.0 mm 0.00 in0.0 mm
01:51 AM 29.7°F-1.3°C 19.0°F-7.2°C 59% Calm Calm -- 30.31 in1026.4 mb 0.00 in0.0 mm 0.00 in0.0 mm 0.00 in0.0 mm
01:49 AM 29.8°F-1.2°C 19.1°F-7.2°C 59% Calm Calm 5.7 mph9.2 kmh 30.31 in1026.4 mb 0.00 in0.0 mm 0.00 in0.0 mm 0.00 in0.0 mm
01:47 AM 29.8°F-1.2°C 19.1°F-7.2°C 59% Calm Calm 5.7 mph9.2 kmh 30.30 in1026.1 mb 0.00 in0.0 mm 0.00 in0.0 mm 0.00 in0.0 mm
01:45 AM 29.7°F-1.3°C 19.4°F-7.0°C 60% Calm Calm -- 30.30 in1026.1 mb 0.00 in0.0 mm 0.00 in0.0 mm 0.00 in0.0 mm
01:43 AM 29.9°F-1.2°C 19.2°F-7.1°C 59% Calm Calm -- 30.30 in1026.1 mb 0.00 in0.0 mm 0.00 in0.0 mm 0.00 in0.0 mm
01:41 AM 29.9°F-1.2°C 19.2°F-7.1°C 59% Calm Calm 3.4 mph5.5 kmh 30.30 in1026.1 mb 0.00 in0.0 mm 0.00 in0.0 mm 0.00 in0.0 mm
01:39 AM 29.9°F-1.2°C 19.2°F-7.1°C 59% Calm Calm -- 30.30 in1026.1 mb 0.00 in0.0 mm 0.00 in0.0 mm 0.00 in0.0 mm
01:37 AM 30.0°F-1.1°C 19.3°F-7.1°C 59% Calm Calm -- 30.30 in1026.1 mb 0.00 in0.0 mm 0.00 in0.0 mm 0.00 in0.0 mm
01:35 AM 30.0°F-1.1°C 19.0°F-7.2°C 58% Calm Calm 1.1 mph1.8 kmh 30.30 in1026.1 mb 0.00 in0.0 mm 0.00 in0.0 mm 0.00 in0.0 mm
01:33 AM 30.1°F-1.1°C 19.4°F-7.0°C 59% Calm Calm -- 30.30 in1026.1 mb 0.00 in0.0 mm 0.00 in0.0 mm 0.00 in0.0 mm
01:31 AM 30.1°F-1.1°C 19.0°F-7.2°C 58% Calm Calm -- 30.30 in1026.1 mb 0.00 in0.0 mm 0.00 in0.0 mm 0.00 in0.0 mm
01:29 AM 30.2°F-1.0°C 19.1°F-7.2°C 58% Calm Calm -- 30.30 in1026.1 mb 0.00 in0.0 mm 0.00 in0.0 mm 0.00 in0.0 mm
01:27 AM 30.2°F-1.0°C 19.1°F-7.2°C 58% Calm Calm -- 30.30 in1026.1 mb 0.00 in0.0 mm 0.00 in0.0 mm 0.00 in0.0 mm
01:25 AM 30.3°F-0.9°C 19.2°F-7.1°C 58% Calm Calm -- 30.30 in1026.1 mb 0.00 in0.0 mm 0.00 in0.0 mm 0.00 in0.0 mm
01:23 AM 30.3°F-0.9°C 19.2°F-7.1°C 58% Calm Calm 8.0 mph12.9 kmh 30.30 in1026.1 mb 0.00 in0.0 mm 0.00 in0.0 mm 0.00 in0.0 mm
01:21 AM 30.3°F-0.9°C 19.2°F-7.1°C 58% Calm Calm 2.3 mph3.7 kmh 30.30 in1026.1 mb 0.00 in0.0 mm 0.00 in0.0 mm 0.00 in0.0 mm
01:19 AM 30.4°F-0.9°C 19.3°F-7.1°C 58% Calm Calm 1.1 mph1.8 kmh 30.30 in1026.1 mb 0.00 in0.0 mm 0.00 in0.0 mm 0.00 in0.0 mm
01:17 AM 30.4°F-0.9°C 19.3°F-7.1°C 58% Calm Calm -- 30.30 in1026.1 mb 0.00 in0.0 mm 0.00 in0.0 mm 0.00 in0.0 mm
01:15 AM 30.4°F-0.9°C 19.3°F-7.1°C 58% Calm Calm 11.4 mph18.3 kmh 30.30 in1026.1 mb 0.00 in0.0 mm 0.00 in0.0 mm 0.00 in0.0 mm
01:13 AM 30.4°F-0.9°C 19.3°F-7.1°C 58% 2.0 mph NE3.2 kmh NE 3.4 mph5.5 kmh 30.30 in1026.1 mb 0.00 in0.0 mm 0.00 in0.0 mm 0.00 in0.0 mm
01:11 AM 30.5°F-0.8°C 19.4°F-7.0°C 58% Calm Calm 3.4 mph5.5 kmh 30.30 in1026.1 mb 0.00 in0.0 mm 0.00 in0.0 mm 0.00 in0.0 mm
01:09 AM 30.6°F-0.8°C 19.5°F-6.9°C 58% Calm Calm -- 30.30 in1026.1 mb 0.00 in0.0 mm 0.00 in0.0 mm 0.00 in0.0 mm
01:07 AM 30.5°F-0.8°C 19.4°F-7.0°C 58% Calm Calm 2.3 mph3.7 kmh 30.30 in1026.1 mb 0.00 in0.0 mm 0.00 in0.0 mm 0.00 in0.0 mm
01:05 AM 30.6°F-0.8°C 19.5°F-6.9°C 58% Calm Calm -- 30.30 in1026.1 mb 0.00 in0.0 mm 0.00 in0.0 mm 0.00 in0.0 mm
01:03 AM 30.5°F-0.8°C 19.4°F-7.0°C 58% Calm Calm -- 30.30 in1026.1 mb 0.00 in0.0 mm 0.00 in0.0 mm 0.00 in0.0 mm
01:01 AM 30.6°F-0.8°C 19.2°F-7.1°C 57% Calm Calm 3.4 mph5.5 kmh 30.30 in1026.1 mb 0.00 in0.0 mm 0.00 in0.0 mm 0.00 in0.0 mm
12:59 AM 30.5°F-0.8°C 19.4°F-7.0°C 58% Calm Calm -- 30.30 in1026.1 mb 0.00 in0.0 mm 0.00 in0.0 mm 0.00 in0.0 mm
12:57 AM 30.6°F-0.8°C 19.5°F-6.9°C 58% Calm Calm -- 30.30 in1026.1 mb 0.00 in0.0 mm 0.00 in0.0 mm 0.00 in0.0 mm
12:55 AM 30.7°F-0.7°C 19.6°F-6.9°C 58% Calm Calm 1.1 mph1.8 kmh 30.30 in1026.1 mb 0.00 in0.0 mm 0.00 in0.0 mm 0.00 in0.0 mm
12:53 AM 30.7°F-0.7°C 19.6°F-6.9°C 58% Calm Calm -- 30.30 in1026.1 mb 0.00 in0.0 mm 0.00 in0.0 mm 0.00 in0.0 mm
12:51 AM 30.8°F-0.7°C 19.3°F-7.1°C 57% Calm Calm 4.6 mph7.4 kmh 30.30 in1026.1 mb 0.00 in0.0 mm 0.00 in0.0 mm 0.00 in0.0 mm
12:49 AM 30.8°F-0.7°C 19.3°F-7.1°C 57% Calm Calm -- 30.30 in1026.1 mb 0.00 in0.0 mm 0.00 in0.0 mm 0.00 in0.0 mm
12:47 AM 30.8°F-0.7°C 19.7°F-6.8°C 58% Calm Calm -- 30.30 in1026.1 mb 0.00 in0.0 mm 0.00 in0.0 mm 0.00 in0.0 mm
12:45 AM 30.9°F-0.6°C 19.8°F-6.8°C 58% Calm Calm -- 30.30 in1026.1 mb 0.00 in0.0 mm 0.00 in0.0 mm 0.00 in0.0 mm
12:43 AM 30.9°F-0.6°C 19.4°F-7.0°C 57% Calm Calm 1.1 mph1.8 kmh 30.30 in1026.1 mb 0.00 in0.0 mm 0.00 in0.0 mm 0.00 in0.0 mm
12:41 AM 30.9°F-0.6°C 19.4°F-7.0°C 57% Calm Calm -- 30.30 in1026.1 mb 0.00 in0.0 mm 0.00 in0.0 mm 0.00 in0.0 mm
12:39 AM 30.9°F-0.6°C 19.4°F-7.0°C 57% Calm Calm 12.5 mph20.1 kmh 30.30 in1026.1 mb 0.00 in0.0 mm 0.00 in0.0 mm 0.00 in0.0 mm
12:37 AM 30.9°F-0.6°C 19.8°F-6.8°C 58% Calm Calm 5.7 mph9.2 kmh 30.30 in1026.1 mb 0.00 in0.0 mm 0.00 in0.0 mm 0.00 in0.0 mm
12:35 AM 31.0°F-0.6°C 19.5°F-6.9°C 57% Calm Calm 5.7 mph9.2 kmh 30.30 in1026.1 mb 0.00 in0.0 mm 0.00 in0.0 mm 0.00 in0.0 mm
12:33 AM 31.1°F-0.5°C 19.6°F-6.9°C 57% Calm Calm -- 30.30 in1026.1 mb 0.00 in0.0 mm 0.00 in0.0 mm 0.00 in0.0 mm
12:31 AM 31.1°F-0.5°C 19.6°F-6.9°C 57% Calm Calm 6.8 mph10.9 kmh 30.30 in1026.1 mb 0.00 in0.0 mm 0.00 in0.0 mm 0.00 in0.0 mm
12:29 AM 31.1°F-0.5°C 19.2°F-7.1°C 56% Calm Calm -- 30.29 in1025.7 mb 0.00 in0.0 mm 0.00 in0.0 mm 0.00 in0.0 mm
12:27 AM 31.1°F-0.5°C 19.2°F-7.1°C 56% Calm Calm -- 30.29 in1025.7 mb 0.00 in0.0 mm 0.00 in0.0 mm 0.00 in0.0 mm
12:25 AM 31.2°F-0.4°C 19.0°F-7.2°C 55% Calm Calm 5.7 mph9.2 kmh 30.29 in1025.7 mb 0.00 in0.0 mm 0.00 in0.0 mm 0.00 in0.0 mm
12:23 AM 31.2°F-0.4°C 19.0°F-7.2°C 55% Calm Calm -- 30.29 in1025.7 mb 0.00 in0.0 mm 0.00 in0.0 mm 0.00 in0.0 mm
12:21 AM 31.3°F-0.4°C 19.0°F-7.2°C 55% Calm Calm -- 30.29 in1025.7 mb 0.00 in0.0 mm 0.00 in0.0 mm 0.00 in0.0 mm
12:19 AM 31.3°F-0.4°C 19.0°F-7.2°C 55% Calm Calm 12.5 mph20.1 kmh 30.29 in1025.7 mb 0.00 in0.0 mm 0.00 in0.0 mm 0.00 in0.0 mm
12:17 AM 31.4°F-0.3°C 18.8°F-7.3°C 54% Calm Calm 12.5 mph20.1 kmh 30.29 in1025.7 mb 0.00 in0.0 mm 0.00 in0.0 mm 0.00 in0.0 mm
12:15 AM 31.4°F-0.3°C 18.8°F-7.3°C 54% Calm Calm 12.5 mph20.1 kmh 30.29 in1025.7 mb 0.00 in0.0 mm 0.00 in0.0 mm 0.00 in0.0 mm
12:13 AM 31.5°F-0.3°C 18.8°F-7.3°C 54% Calm Calm 3.4 mph5.5 kmh 30.29 in1025.7 mb 0.00 in0.0 mm 0.00 in0.0 mm 0.00 in0.0 mm
12:11 AM 31.5°F-0.3°C 18.4°F-7.6°C 53% Calm Calm 3.4 mph5.5 kmh 30.29 in1025.7 mb 0.00 in0.0 mm 0.00 in0.0 mm 0.00 in0.0 mm
12:09 AM 31.6°F-0.2°C 18.5°F-7.5°C 53% Calm Calm 4.6 mph7.4 kmh 30.29 in1025.7 mb 0.00 in0.0 mm 0.00 in0.0 mm 0.00 in0.0 mm
12:07 AM 31.6°F-0.2°C 18.5°F-7.5°C 53% Calm Calm 4.6 mph7.4 kmh 30.29 in1025.7 mb 0.00 in0.0 mm 0.00 in0.0 mm 0.00 in0.0 mm
12:05 AM 31.7°F-0.2°C 18.2°F-7.7°C 52% Calm Calm -- 30.29 in1025.7 mb 0.00 in0.0 mm 0.00 in0.0 mm 0.00 in0.0 mm
12:03 AM 31.7°F-0.2°C 18.2°F-7.7°C 52% Calm Calm -- 30.29 in1025.7 mb 0.00 in0.0 mm 0.00 in0.0 mm 0.00 in0.0 mm
12:01 AM 31.8°F-0.1°C 18.3°F-7.6°C 52% Calm Calm 6.8 mph10.9 kmh 30.29 in1025.7 mb 0.00 in0.0 mm 0.00 in0.0 mm 0.00 in0.0 mm